<?xml version="1.0" encoding="UTF-8"?>
<gpx  version="1.1"  creator="Verlag Esterbauer" xmlns:xsi="http://www.w3.org/2001/XMLSchema-instance" xmlns="http://www.topografix.com/GPX/1/1"  xsi:schemaLocation="http://www.topografix.com/GPX/1/1 http://www.topografix.com/GPX/1/1/gpx.xsd">
    <trk>
        <name>drw4#03_1</name>
        <desc>by Verlag Esterbauer</desc>
        <trkseg>
            <trkpt lon="18.70299750" lat="45.99769834">
                <ele>84</ele>
                <time>2012-09-28T13:17:50.691+02:00</time>
            </trkpt>
            <trkpt lon="18.70437945" lat="45.99782473">
                <ele>84</ele>
                <time>2012-09-28T13:18:26.691+02:00</time>
            </trkpt>
            <trkpt lon="18.70525612" lat="45.99811334">
                <ele>83</ele>
                <time>2012-09-28T13:18:49.691+02:00</time>
            </trkpt>
            <trkpt lon="18.70840556" lat="45.99984056">
                <ele>82</ele>
                <time>2012-09-28T13:20:18.691+02:00</time>
            </trkpt>
            <trkpt lon="18.71048056" lat="46.00069501">
                <ele>82</ele>
                <time>2012-09-28T13:21:15.691+02:00</time>
            </trkpt>
            <trkpt lon="18.71097667" lat="46.00078250">
                <ele>81</ele>
                <time>2012-09-28T13:21:28.691+02:00</time>
            </trkpt>
            <trkpt lon="18.71315195" lat="46.00055500">
                <ele>82</ele>
                <time>2012-09-28T13:22:26.691+02:00</time>
            </trkpt>
            <trkpt lon="18.71648778" lat="46.00046695">
                <ele>83</ele>
                <time>2012-09-28T13:23:54.691+02:00</time>
            </trkpt>
            <trkpt lon="18.71816334" lat="46.00022945">
                <ele>82</ele>
                <time>2012-09-28T13:24:38.691+02:00</time>
            </trkpt>
            <trkpt lon="18.72212667" lat="46.00055250">
                <ele>83</ele>
                <time>2012-09-28T13:26:23.691+02:00</time>
            </trkpt>
            <trkpt lon="18.72671834" lat="46.00152251">
                <ele>82</ele>
                <time>2012-09-28T13:28:25.691+02:00</time>
            </trkpt>
            <trkpt lon="18.72947250" lat="46.00208028">
                <ele>81</ele>
                <time>2012-09-28T13:29:38.691+02:00</time>
            </trkpt>
            <trkpt lon="18.73198223" lat="46.00317528">
                <ele>81</ele>
                <time>2012-09-28T13:30:47.691+02:00</time>
            </trkpt>
            <trkpt lon="18.73344556" lat="46.00405584">
                <ele>81</ele>
                <time>2012-09-28T13:31:29.691+02:00</time>
            </trkpt>
            <trkpt lon="18.73622389" lat="46.00538806">
                <ele>82</ele>
                <time>2012-09-28T13:32:46.691+02:00</time>
            </trkpt>
            <trkpt lon="18.73893723" lat="46.00695112">
                <ele>82</ele>
                <time>2012-09-28T13:34:03.691+02:00</time>
            </trkpt>
            <trkpt lon="18.74030862" lat="46.00776750">
                <ele>84</ele>
                <time>2012-09-28T13:34:42.691+02:00</time>
            </trkpt>
            <trkpt lon="18.74132028" lat="46.00707556">
                <ele>82</ele>
                <time>2012-09-28T13:35:11.691+02:00</time>
            </trkpt>
            <trkpt lon="18.74319250" lat="46.00610639">
                <ele>79</ele>
                <time>2012-09-28T13:36:03.691+02:00</time>
            </trkpt>
            <trkpt lon="18.74537834" lat="46.00425306">
                <ele>84</ele>
                <time>2012-09-28T13:37:11.691+02:00</time>
            </trkpt>
            <trkpt lon="18.74726612" lat="46.00289723">
                <ele>84</ele>
                <time>2012-09-28T13:38:06.691+02:00</time>
            </trkpt>
            <trkpt lon="18.74868806" lat="46.00207362">
                <ele>81</ele>
                <time>2012-09-28T13:38:46.691+02:00</time>
            </trkpt>
            <trkpt lon="18.75061723" lat="46.00106667">
                <ele>82</ele>
                <time>2012-09-28T13:39:40.691+02:00</time>
            </trkpt>
            <trkpt lon="18.75363389" lat="46.00062306">
                <ele>82</ele>
                <time>2012-09-28T13:41:00.691+02:00</time>
            </trkpt>
            <trkpt lon="18.75363389" lat="46.00062306">
                <ele>82</ele>
                <time>2012-09-28T13:41:00.691+02:00</time>
            </trkpt>
            <trkpt lon="18.75576167" lat="46.00020028">
                <ele>83</ele>
                <time>2012-09-28T13:41:57.691+02:00</time>
            </trkpt>
            <trkpt lon="18.75871028" lat="45.99731695">
                <ele>83</ele>
                <time>2012-09-28T13:43:31.691+02:00</time>
            </trkpt>
            <trkpt lon="18.75908223" lat="45.99635667">
                <ele>83</ele>
                <time>2012-09-28T13:43:51.691+02:00</time>
            </trkpt>
            <trkpt lon="18.76018167" lat="45.99525584">
                <ele>81</ele>
                <time>2012-09-28T13:44:26.691+02:00</time>
            </trkpt>
            <trkpt lon="18.76407862" lat="45.99362917">
                <ele>81</ele>
                <time>2012-09-28T13:46:13.691+02:00</time>
            </trkpt>
            <trkpt lon="18.76971584" lat="45.99153334">
                <ele>81</ele>
                <time>2012-09-28T13:48:47.691+02:00</time>
            </trkpt>
            <trkpt lon="18.77191834" lat="45.99060862">
                <ele>82</ele>
                <time>2012-09-28T13:49:48.691+02:00</time>
            </trkpt>
            <trkpt lon="18.77506112" lat="45.98838639">
                <ele>83</ele>
                <time>2012-09-28T13:51:21.691+02:00</time>
            </trkpt>
            <trkpt lon="18.77890973" lat="45.98656500">
                <ele>82</ele>
                <time>2012-09-28T13:53:08.691+02:00</time>
            </trkpt>
            <trkpt lon="18.77953862" lat="45.98611278">
                <ele>82</ele>
                <time>2012-09-28T13:53:26.691+02:00</time>
            </trkpt>
            <trkpt lon="18.78058667" lat="45.98489473">
                <ele>83</ele>
                <time>2012-09-28T13:54:01.691+02:00</time>
            </trkpt>
            <trkpt lon="18.78174695" lat="45.98503334">
                <ele>83</ele>
                <time>2012-09-28T13:54:31.691+02:00</time>
            </trkpt>
            <trkpt lon="18.78290417" lat="45.98524917">
                <ele>83</ele>
                <time>2012-09-28T13:55:01.691+02:00</time>
            </trkpt>
            <trkpt lon="18.78495223" lat="45.98540501">
                <ele>84</ele>
                <time>2012-09-28T13:55:55.691+02:00</time>
            </trkpt>
            <trkpt lon="18.78688778" lat="45.98559750">
                <ele>85</ele>
                <time>2012-09-28T13:56:46.691+02:00</time>
            </trkpt>
            <trkpt lon="18.78823000" lat="45.98535250">
                <ele>84</ele>
                <time>2012-09-28T13:57:21.691+02:00</time>
            </trkpt>
            <trkpt lon="18.78823000" lat="45.98535250">
                <ele>84</ele>
                <time>2012-09-28T13:57:21.691+02:00</time>
            </trkpt>
            <trkpt lon="18.79153528" lat="45.98460362">
                <ele>82</ele>
                <time>2012-09-28T13:58:49.691+02:00</time>
            </trkpt>
            <trkpt lon="18.79459723" lat="45.98578528">
                <ele>83</ele>
                <time>2012-09-28T14:00:13.691+02:00</time>
            </trkpt>
            <trkpt lon="18.79788473" lat="45.98689362">
                <ele>83</ele>
                <time>2012-09-28T14:01:42.691+02:00</time>
            </trkpt>
            <trkpt lon="18.80513139" lat="45.98474973">
                <ele>81</ele>
                <time>2012-09-28T14:04:58.691+02:00</time>
            </trkpt>
            <trkpt lon="18.80934723" lat="45.98343723">
                <ele>78</ele>
                <time>2012-09-28T14:06:52.691+02:00</time>
            </trkpt>
            <trkpt lon="18.81436834" lat="45.98140473">
                <ele>79</ele>
                <time>2012-09-28T14:09:10.691+02:00</time>
            </trkpt>
            <trkpt lon="18.82569889" lat="45.97701556">
                <ele>84</ele>
                <time>2012-09-28T14:14:22.691+02:00</time>
            </trkpt>
            <trkpt lon="18.83111139" lat="45.97487362">
                <ele>81</ele>
                <time>2012-09-28T14:16:50.691+02:00</time>
            </trkpt>
            <trkpt lon="18.84108862" lat="45.97096000">
                <ele>82</ele>
                <time>2012-09-28T14:21:24.691+02:00</time>
            </trkpt>
            <trkpt lon="18.84260862" lat="45.97040834">
                <ele>82</ele>
                <time>2012-09-28T14:22:05.691+02:00</time>
            </trkpt>
            <trkpt lon="18.84494723" lat="45.96878806">
                <ele>83</ele>
                <time>2012-09-28T14:23:14.691+02:00</time>
            </trkpt>
            <trkpt lon="18.84750167" lat="45.96732695">
                <ele>80</ele>
                <time>2012-09-28T14:24:26.691+02:00</time>
            </trkpt>
            <trkpt lon="18.84940362" lat="45.96550501">
                <ele>83</ele>
                <time>2012-09-28T14:25:27.691+02:00</time>
            </trkpt>
            <trkpt lon="18.85057556" lat="45.96390167">
                <ele>81</ele>
                <time>2012-09-28T14:26:09.691+02:00</time>
            </trkpt>
            <trkpt lon="18.85057556" lat="45.96390167">
                <ele>81</ele>
                <time>2012-09-28T14:26:09.691+02:00</time>
            </trkpt>
            <trkpt lon="18.85071945" lat="45.96305278">
                <ele>82</ele>
                <time>2012-09-28T14:26:25.691+02:00</time>
            </trkpt>
            <trkpt lon="18.85142223" lat="45.96209862">
                <ele>82</ele>
                <time>2012-09-28T14:26:50.691+02:00</time>
            </trkpt>
            <trkpt lon="18.85399084" lat="45.95881834">
                <ele>82</ele>
                <time>2012-09-28T14:28:21.691+02:00</time>
            </trkpt>
            <trkpt lon="18.85678695" lat="45.95538751">
                <ele>82</ele>
                <time>2012-09-28T14:29:58.691+02:00</time>
            </trkpt>
            <trkpt lon="18.85994334" lat="45.95122806">
                <ele>82</ele>
                <time>2012-09-28T14:31:51.691+02:00</time>
            </trkpt>
            <trkpt lon="18.86087223" lat="45.95016195">
                <ele>82</ele>
                <time>2012-09-28T14:32:22.691+02:00</time>
            </trkpt>
            <trkpt lon="18.86202417" lat="45.94906112">
                <ele>80</ele>
                <time>2012-09-28T14:32:58.691+02:00</time>
            </trkpt>
            <trkpt lon="18.86565973" lat="45.94541362">
                <ele>81</ele>
                <time>2012-09-28T14:34:55.691+02:00</time>
            </trkpt>
            <trkpt lon="18.86890334" lat="45.94473862">
                <ele>85</ele>
                <time>2012-09-28T14:36:22.691+02:00</time>
            </trkpt>
            <trkpt lon="18.87096501" lat="45.94450639">
                <ele>83</ele>
                <time>2012-09-28T14:37:16.691+02:00</time>
            </trkpt>
            <trkpt lon="18.87268806" lat="45.94442223">
                <ele>82</ele>
                <time>2012-09-28T14:38:01.691+02:00</time>
            </trkpt>
            <trkpt lon="18.87268806" lat="45.94442223">
                <ele>82</ele>
                <time>2012-09-28T14:38:01.691+02:00</time>
            </trkpt>
            <trkpt lon="18.87650806" lat="45.94317750">
                <ele>85</ele>
                <time>2012-09-28T14:39:45.691+02:00</time>
            </trkpt>
            <trkpt lon="18.88169417" lat="45.94393167">
                <ele>82</ele>
                <time>2012-09-28T14:42:03.691+02:00</time>
            </trkpt>
            <trkpt lon="18.89071612" lat="45.94448556">
                <ele>81</ele>
                <time>2012-09-28T14:46:02.691+02:00</time>
            </trkpt>
            <trkpt lon="18.89586751" lat="45.94469667">
                <ele>82</ele>
                <time>2012-09-28T14:48:18.691+02:00</time>
            </trkpt>
            <trkpt lon="18.90178362" lat="45.94523139">
                <ele>81</ele>
                <time>2012-09-28T14:50:55.691+02:00</time>
            </trkpt>
            <trkpt lon="18.90819723" lat="45.94581334">
                <ele>82</ele>
                <time>2012-09-28T14:53:45.691+02:00</time>
            </trkpt>
            <trkpt lon="18.91953834" lat="45.94667862">
                <ele>81</ele>
                <time>2012-09-28T14:58:45.691+02:00</time>
            </trkpt>
            <trkpt lon="18.92445973" lat="45.94711639">
                <ele>81</ele>
                <time>2012-09-28T15:00:55.691+02:00</time>
            </trkpt>
            <trkpt lon="18.92511778" lat="45.94732167">
                <ele>82</ele>
                <time>2012-09-28T15:01:13.691+02:00</time>
            </trkpt>
            <trkpt lon="18.92673778" lat="45.94851223">
                <ele>90</ele>
                <time>2012-09-28T15:02:03.691+02:00</time>
            </trkpt>
            <trkpt lon="18.92816500" lat="45.94892528">
                <ele>90</ele>
                <time>2012-09-28T15:02:41.691+02:00</time>
            </trkpt>
            <trkpt lon="18.92888000" lat="45.94909306">
                <ele>88</ele>
                <time>2012-09-28T15:03:00.691+02:00</time>
            </trkpt>
            <trkpt lon="18.93120139" lat="45.94932862">
                <ele>88</ele>
                <time>2012-09-28T15:04:01.691+02:00</time>
            </trkpt>
            <trkpt lon="18.93120139" lat="45.94932862">
                <ele>88</ele>
                <time>2012-09-28T15:04:01.691+02:00</time>
            </trkpt>
            <trkpt lon="18.93265806" lat="45.94745862">
                <ele>88</ele>
                <time>2012-09-28T15:04:52.691+02:00</time>
            </trkpt>
            <trkpt lon="18.93329945" lat="45.94661862">
                <ele>87</ele>
                <time>2012-09-28T15:05:14.691+02:00</time>
            </trkpt>
            <trkpt lon="18.93630112" lat="45.94497000">
                <ele>87</ele>
                <time>2012-09-28T15:06:39.691+02:00</time>
            </trkpt>
            <trkpt lon="18.93941056" lat="45.94340056">
                <ele>87</ele>
                <time>2012-09-28T15:08:06.691+02:00</time>
            </trkpt>
            <trkpt lon="18.94212334" lat="45.94205612">
                <ele>87</ele>
                <time>2012-09-28T15:09:22.691+02:00</time>
            </trkpt>
            <trkpt lon="18.94319389" lat="45.94161112">
                <ele>86</ele>
                <time>2012-09-28T15:09:51.691+02:00</time>
            </trkpt>
            <trkpt lon="18.94310028" lat="45.94114500">
                <ele>86</ele>
                <time>2012-09-28T15:09:59.691+02:00</time>
            </trkpt>
            <trkpt lon="18.94296834" lat="45.94021362">
                <ele>85</ele>
                <time>2012-09-28T15:10:16.691+02:00</time>
            </trkpt>
            <trkpt lon="18.94283195" lat="45.93939862">
                <ele>86</ele>
                <time>2012-09-28T15:10:31.691+02:00</time>
            </trkpt>
            <trkpt lon="18.94302889" lat="45.93769778">
                <ele>85</ele>
                <time>2012-09-28T15:11:02.691+02:00</time>
            </trkpt>
            <trkpt lon="18.94302889" lat="45.93769778">
                <ele>85</ele>
                <time>2012-09-28T15:11:02.691+02:00</time>
            </trkpt>
            <trkpt lon="18.94046889" lat="45.93590639">
                <ele>84</ele>
                <time>2012-09-28T15:12:17.691+02:00</time>
            </trkpt>
            <trkpt lon="18.93573195" lat="45.93145945">
                <ele>86</ele>
                <time>2012-09-28T15:14:47.691+02:00</time>
            </trkpt>
            <trkpt lon="18.93500584" lat="45.93054917">
                <ele>87</ele>
                <time>2012-09-28T15:15:12.691+02:00</time>
            </trkpt>
            <trkpt lon="18.93500584" lat="45.93054917">
                <ele>87</ele>
                <time>2012-09-28T15:15:12.691+02:00</time>
            </trkpt>
            <trkpt lon="18.93430278" lat="45.92940084">
                <ele>88</ele>
                <time>2012-09-28T15:15:40.691+02:00</time>
            </trkpt>
            <trkpt lon="18.93300612" lat="45.92340334">
                <ele>88</ele>
                <time>2012-09-28T15:17:35.691+02:00</time>
            </trkpt>
            <trkpt lon="18.93303112" lat="45.92139723">
                <ele>87</ele>
                <time>2012-09-28T15:18:11.691+02:00</time>
            </trkpt>
            <trkpt lon="18.93303112" lat="45.92139723">
                <ele>87</ele>
                <time>2012-09-28T15:18:11.691+02:00</time>
            </trkpt>
            <trkpt lon="18.93369223" lat="45.91841084">
                <ele>86</ele>
                <time>2012-09-28T15:19:08.691+02:00</time>
            </trkpt>
            <trkpt lon="18.93465695" lat="45.91494695">
                <ele>86</ele>
                <time>2012-09-28T15:20:16.691+02:00</time>
            </trkpt>
            <trkpt lon="18.93536612" lat="45.90932612">
                <ele>81</ele>
                <time>2012-09-28T15:22:01.691+02:00</time>
            </trkpt>
            <trkpt lon="18.93483278" lat="45.90710306">
                <ele>81</ele>
                <time>2012-09-28T15:22:44.691+02:00</time>
            </trkpt>
            <trkpt lon="18.93273473" lat="45.90418834">
                <ele>83</ele>
                <time>2012-09-28T15:24:01.691+02:00</time>
            </trkpt>
            <trkpt lon="18.92966250" lat="45.90076056">
                <ele>87</ele>
                <time>2012-09-28T15:25:45.691+02:00</time>
            </trkpt>
            <trkpt lon="18.92922306" lat="45.89900389">
                <ele>87</ele>
                <time>2012-09-28T15:26:19.691+02:00</time>
            </trkpt>
            <trkpt lon="18.92922223" lat="45.89773362">
                <ele>86</ele>
                <time>2012-09-28T15:26:42.691+02:00</time>
            </trkpt>
            <trkpt lon="18.92766528" lat="45.89576667">
                <ele>86</ele>
                <time>2012-09-28T15:27:36.691+02:00</time>
            </trkpt>
            <trkpt lon="18.92766528" lat="45.89576667">
                <ele>86</ele>
                <time>2012-09-28T15:27:36.691+02:00</time>
            </trkpt>
            <trkpt lon="18.92629751" lat="45.89410139">
                <ele>87</ele>
                <time>2012-09-28T15:28:23.691+02:00</time>
            </trkpt>
            <trkpt lon="18.92428695" lat="45.89041167">
                <ele>85</ele>
                <time>2012-09-28T15:29:49.691+02:00</time>
            </trkpt>
            <trkpt lon="18.92463556" lat="45.88945528">
                <ele>83</ele>
                <time>2012-09-28T15:30:08.691+02:00</time>
            </trkpt>
            <trkpt lon="18.92523473" lat="45.88766417">
                <ele>85</ele>
                <time>2012-09-28T15:30:45.691+02:00</time>
            </trkpt>
            <trkpt lon="18.92762028" lat="45.88682667">
                <ele>82</ele>
                <time>2012-09-28T15:31:50.691+02:00</time>
            </trkpt>
            <trkpt lon="18.92964889" lat="45.88550556">
                <ele>83</ele>
                <time>2012-09-28T15:32:49.691+02:00</time>
            </trkpt>
            <trkpt lon="18.93250473" lat="45.88304278">
                <ele>82</ele>
                <time>2012-09-28T15:34:17.691+02:00</time>
            </trkpt>
            <trkpt lon="18.93566250" lat="45.87909528">
                <ele>81</ele>
                <time>2012-09-28T15:36:07.691+02:00</time>
            </trkpt>
            <trkpt lon="18.93492223" lat="45.87596556">
                <ele>79</ele>
                <time>2012-09-28T15:37:07.691+02:00</time>
            </trkpt>
            <trkpt lon="18.93503667" lat="45.87250917">
                <ele>81</ele>
                <time>2012-09-28T15:38:11.691+02:00</time>
            </trkpt>
            <trkpt lon="18.93442278" lat="45.87013001">
                <ele>80</ele>
                <time>2012-09-28T15:38:57.691+02:00</time>
            </trkpt>
            <trkpt lon="18.93370973" lat="45.86804001">
                <ele>79</ele>
                <time>2012-09-28T15:39:39.691+02:00</time>
            </trkpt>
            <trkpt lon="18.93323500" lat="45.86438278">
                <ele>81</ele>
                <time>2012-09-28T15:40:48.691+02:00</time>
            </trkpt>
            <trkpt lon="18.93214778" lat="45.86216278">
                <ele>85</ele>
                <time>2012-09-28T15:41:39.691+02:00</time>
            </trkpt>
            <trkpt lon="18.92782750" lat="45.85841945">
                <ele>82</ele>
                <time>2012-09-28T15:43:52.691+02:00</time>
            </trkpt>
            <trkpt lon="18.92458112" lat="45.85552334">
                <ele>85</ele>
                <time>2012-09-28T15:45:33.691+02:00</time>
            </trkpt>
            <trkpt lon="18.92197889" lat="45.85436834">
                <ele>86</ele>
                <time>2012-09-28T15:46:45.691+02:00</time>
            </trkpt>
            <trkpt lon="18.92461167" lat="45.85122806">
                <ele>83</ele>
                <time>2012-09-28T15:48:15.691+02:00</time>
            </trkpt>
            <trkpt lon="18.92447362" lat="45.84978973">
                <ele>84</ele>
                <time>2012-09-28T15:48:42.691+02:00</time>
            </trkpt>
            <trkpt lon="18.92441250" lat="45.84733806">
                <ele>82</ele>
                <time>2012-09-28T15:49:27.691+02:00</time>
            </trkpt>
            <trkpt lon="18.92441639" lat="45.84746695">
                <ele>82</ele>
                <time>2012-09-28T15:49:29.691+02:00</time>
            </trkpt>
            <trkpt lon="18.92449806" lat="45.84691334">
                <ele>82</ele>
                <time>2012-09-28T15:49:39.691+02:00</time>
            </trkpt>
            <trkpt lon="18.92569695" lat="45.84424528">
                <ele>83</ele>
                <time>2012-09-28T15:50:37.691+02:00</time>
            </trkpt>
            <trkpt lon="18.92629556" lat="45.84293251">
                <ele>84</ele>
                <time>2012-09-28T15:51:06.691+02:00</time>
            </trkpt>
            <trkpt lon="18.92791612" lat="45.83877750">
                <ele>79</ele>
                <time>2012-09-28T15:52:33.691+02:00</time>
            </trkpt>
            <trkpt lon="18.92879139" lat="45.83823834">
                <ele>79</ele>
                <time>2012-09-28T15:52:58.691+02:00</time>
            </trkpt>
            <trkpt lon="18.92931139" lat="45.83739389">
                <ele>80</ele>
                <time>2012-09-28T15:53:19.691+02:00</time>
            </trkpt>
            <trkpt lon="18.92946028" lat="45.83667056">
                <ele>80</ele>
                <time>2012-09-28T15:53:32.691+02:00</time>
            </trkpt>
            <trkpt lon="18.92958945" lat="45.83483695">
                <ele>81</ele>
                <time>2012-09-28T15:54:06.691+02:00</time>
            </trkpt>
            <trkpt lon="18.92930778" lat="45.83090389">
                <ele>80</ele>
                <time>2012-09-28T15:55:19.691+02:00</time>
            </trkpt>
            <trkpt lon="18.92980778" lat="45.82894862">
                <ele>81</ele>
                <time>2012-09-28T15:55:57.691+02:00</time>
            </trkpt>
            <trkpt lon="18.92998056" lat="45.82758556">
                <ele>80</ele>
                <time>2012-09-28T15:56:22.691+02:00</time>
            </trkpt>
            <trkpt lon="18.92974195" lat="45.82578806">
                <ele>88</ele>
                <time>2012-09-28T15:56:57.691+02:00</time>
            </trkpt>
            <trkpt lon="18.92918223" lat="45.82441139">
                <ele>90</ele>
                <time>2012-09-28T15:57:26.691+02:00</time>
            </trkpt>
            <trkpt lon="18.92819389" lat="45.82307001">
                <ele>82</ele>
                <time>2012-09-28T15:58:02.691+02:00</time>
            </trkpt>
            <trkpt lon="18.92775000" lat="45.82186639">
                <ele>84</ele>
                <time>2012-09-28T15:58:27.691+02:00</time>
            </trkpt>
            <trkpt lon="18.92714195" lat="45.82014750">
                <ele>84</ele>
                <time>2012-09-28T15:59:02.691+02:00</time>
            </trkpt>
            <trkpt lon="18.92688612" lat="45.81881917">
                <ele>82</ele>
                <time>2012-09-28T15:59:27.691+02:00</time>
            </trkpt>
            <trkpt lon="18.92681639" lat="45.81740889">
                <ele>82</ele>
                <time>2012-09-28T15:59:53.691+02:00</time>
            </trkpt>
            <trkpt lon="18.92853667" lat="45.81547612">
                <ele>89</ele>
                <time>2012-09-28T16:00:52.691+02:00</time>
            </trkpt>
            <trkpt lon="18.93074417" lat="45.81192945">
                <ele>85</ele>
                <time>2012-09-28T16:02:19.691+02:00</time>
            </trkpt>
            <trkpt lon="18.93428362" lat="45.81032834">
                <ele>82</ele>
                <time>2012-09-28T16:03:57.691+02:00</time>
            </trkpt>
            <trkpt lon="18.93801389" lat="45.80851695">
                <ele>84</ele>
                <time>2012-09-28T16:05:41.691+02:00</time>
            </trkpt>
            <trkpt lon="18.93786251" lat="45.80766028">
                <ele>85</ele>
                <time>2012-09-28T16:05:57.691+02:00</time>
            </trkpt>
            <trkpt lon="18.93744778" lat="45.80731112">
                <ele>84</ele>
                <time>2012-09-28T16:06:09.691+02:00</time>
            </trkpt>
            <trkpt lon="18.93710112" lat="45.80512750">
                <ele>82</ele>
                <time>2012-09-28T16:06:50.691+02:00</time>
            </trkpt>
            <trkpt lon="18.93674806" lat="45.80311417">
                <ele>82</ele>
                <time>2012-09-28T16:07:28.691+02:00</time>
            </trkpt>
            <trkpt lon="18.93632195" lat="45.79977612">
                <ele>81</ele>
                <time>2012-09-28T16:08:30.691+02:00</time>
            </trkpt>
            <trkpt lon="18.93488584" lat="45.79569389">
                <ele>83</ele>
                <time>2012-09-28T16:09:54.691+02:00</time>
            </trkpt>
            <trkpt lon="18.93382001" lat="45.79315556">
                <ele>86</ele>
                <time>2012-09-28T16:10:49.691+02:00</time>
            </trkpt>
            <trkpt lon="18.93366528" lat="45.79238417">
                <ele>85</ele>
                <time>2012-09-28T16:11:03.691+02:00</time>
            </trkpt>
            <trkpt lon="18.93373889" lat="45.79204389">
                <ele>85</ele>
                <time>2012-09-28T16:11:09.691+02:00</time>
            </trkpt>
            <trkpt lon="18.93373251" lat="45.79221445">
                <ele>85</ele>
                <time>2012-09-28T16:11:12.691+02:00</time>
            </trkpt>
            <trkpt lon="18.93404695" lat="45.79196417">
                <ele>85</ele>
                <time>2012-09-28T16:11:21.691+02:00</time>
            </trkpt>
            <trkpt lon="18.93817306" lat="45.79097112">
                <ele>84</ele>
                <time>2012-09-28T16:13:11.691+02:00</time>
            </trkpt>
            <trkpt lon="18.94020473" lat="45.79049556">
                <ele>84</ele>
                <time>2012-09-28T16:14:05.691+02:00</time>
            </trkpt>
            <trkpt lon="18.94175167" lat="45.78992556">
                <ele>82</ele>
                <time>2012-09-28T16:14:47.691+02:00</time>
            </trkpt>
            <trkpt lon="18.94219889" lat="45.78937862">
                <ele>82</ele>
                <time>2012-09-28T16:15:02.691+02:00</time>
            </trkpt>
            <trkpt lon="18.94234445" lat="45.78874084">
                <ele>82</ele>
                <time>2012-09-28T16:15:14.691+02:00</time>
            </trkpt>
            <trkpt lon="18.94326556" lat="45.78858639">
                <ele>81</ele>
                <time>2012-09-28T16:15:38.691+02:00</time>
            </trkpt>
            <trkpt lon="18.94619001" lat="45.78872445">
                <ele>81</ele>
                <time>2012-09-28T16:16:55.691+02:00</time>
            </trkpt>
            <trkpt lon="18.95100362" lat="45.78893917">
                <ele>79</ele>
                <time>2012-09-28T16:19:02.691+02:00</time>
            </trkpt>
            <trkpt lon="18.95314167" lat="45.78889195">
                <ele>79</ele>
                <time>2012-09-28T16:19:58.691+02:00</time>
            </trkpt>
            <trkpt lon="18.95637112" lat="45.78852500">
                <ele>80</ele>
                <time>2012-09-28T16:21:24.691+02:00</time>
            </trkpt>
            <trkpt lon="18.95872167" lat="45.78818056">
                <ele>81</ele>
                <time>2012-09-28T16:22:26.691+02:00</time>
            </trkpt>
            <trkpt lon="18.96080778" lat="45.78787639">
                <ele>81</ele>
                <time>2012-09-28T16:23:21.691+02:00</time>
            </trkpt>
            <trkpt lon="18.96215806" lat="45.78701278">
                <ele>82</ele>
                <time>2012-09-28T16:24:00.691+02:00</time>
            </trkpt>
            <trkpt lon="18.96398667" lat="45.78605445">
                <ele>82</ele>
                <time>2012-09-28T16:24:51.691+02:00</time>
            </trkpt>
            <trkpt lon="18.96608695" lat="45.78536584">
                <ele>83</ele>
                <time>2012-09-28T16:25:48.691+02:00</time>
            </trkpt>
            <trkpt lon="18.96907695" lat="45.78537639">
                <ele>82</ele>
                <time>2012-09-28T16:27:07.691+02:00</time>
            </trkpt>
            <trkpt lon="18.97332750" lat="45.78596417">
                <ele>82</ele>
                <time>2012-09-28T16:29:00.691+02:00</time>
            </trkpt>
            <trkpt lon="18.98109723" lat="45.78712667">
                <ele>82</ele>
                <time>2012-09-28T16:32:27.691+02:00</time>
            </trkpt>
            <trkpt lon="18.98425028" lat="45.78769473">
                <ele>83</ele>
                <time>2012-09-28T16:33:51.691+02:00</time>
            </trkpt>
            <trkpt lon="18.98496528" lat="45.78817695">
                <ele>83</ele>
                <time>2012-09-28T16:34:11.691+02:00</time>
            </trkpt>
            <trkpt lon="18.98827528" lat="45.78977250">
                <ele>81</ele>
                <time>2012-09-28T16:35:43.691+02:00</time>
            </trkpt>
            <trkpt lon="18.98917473" lat="45.79000000">
                <ele>80</ele>
                <time>2012-09-28T16:36:07.691+02:00</time>
            </trkpt>
            <trkpt lon="18.99272362" lat="45.78968000">
                <ele>82</ele>
                <time>2012-09-28T16:37:41.691+02:00</time>
            </trkpt>
            <trkpt lon="18.99376056" lat="45.78969806">
                <ele>82</ele>
                <time>2012-09-28T16:38:08.691+02:00</time>
            </trkpt>
            <trkpt lon="19.00653139" lat="45.79269723">
                <ele>82</ele>
                <time>2012-09-28T16:43:50.691+02:00</time>
            </trkpt>
            <trkpt lon="19.00871084" lat="45.79290223">
                <ele>82</ele>
                <time>2012-09-28T16:44:47.691+02:00</time>
            </trkpt>
            <trkpt lon="19.01153195" lat="45.79282695">
                <ele>81</ele>
                <time>2012-09-28T16:46:01.691+02:00</time>
            </trkpt>
            <trkpt lon="19.01875834" lat="45.79214139">
                <ele>83</ele>
                <time>2012-09-28T16:49:13.691+02:00</time>
            </trkpt>
            <trkpt lon="19.02267445" lat="45.79186751">
                <ele>81</ele>
                <time>2012-09-28T16:50:56.691+02:00</time>
            </trkpt>
            <trkpt lon="19.02677195" lat="45.79163945">
                <ele>80</ele>
                <time>2012-09-28T16:52:44.691+02:00</time>
            </trkpt>
            <trkpt lon="19.03013584" lat="45.79144139">
                <ele>83</ele>
                <time>2012-09-28T16:54:13.691+02:00</time>
            </trkpt>
            <trkpt lon="19.03269778" lat="45.79148556">
                <ele>84</ele>
                <time>2012-09-28T16:55:21.691+02:00</time>
            </trkpt>
            <trkpt lon="19.03534306" lat="45.79119139">
                <ele>82</ele>
                <time>2012-09-28T16:56:31.691+02:00</time>
            </trkpt>
            <trkpt lon="19.03742917" lat="45.79058501">
                <ele>83</ele>
                <time>2012-09-28T16:57:27.691+02:00</time>
            </trkpt>
            <trkpt lon="19.03872195" lat="45.79026556">
                <ele>82</ele>
                <time>2012-09-28T16:58:01.691+02:00</time>
            </trkpt>
            <trkpt lon="19.04099862" lat="45.78974973">
                <ele>84</ele>
                <time>2012-09-28T16:59:02.691+02:00</time>
            </trkpt>
            <trkpt lon="19.04696000" lat="45.78857084">
                <ele>84</ele>
                <time>2012-09-28T17:01:41.691+02:00</time>
            </trkpt>
            <trkpt lon="19.05464084" lat="45.78707945">
                <ele>85</ele>
                <time>2012-09-28T17:05:06.691+02:00</time>
            </trkpt>
            <trkpt lon="19.05678750" lat="45.78677417">
                <ele>84</ele>
                <time>2012-09-28T17:06:03.691+02:00</time>
            </trkpt>
            <trkpt lon="19.06569362" lat="45.78513223">
                <ele>86</ele>
                <time>2012-09-28T17:10:01.691+02:00</time>
            </trkpt>
            <trkpt lon="19.07214639" lat="45.78383223">
                <ele>84</ele>
                <time>2012-09-28T17:12:53.691+02:00</time>
            </trkpt>
            <trkpt lon="19.07768417" lat="45.78251667">
                <ele>85</ele>
                <time>2012-09-28T17:15:21.691+02:00</time>
            </trkpt>
            <trkpt lon="19.07909417" lat="45.78232695">
                <ele>84</ele>
                <time>2012-09-28T17:15:58.691+02:00</time>
            </trkpt>
            <trkpt lon="19.08094528" lat="45.78351084">
                <ele>83</ele>
                <time>2012-09-28T17:16:51.691+02:00</time>
            </trkpt>
            <trkpt lon="19.08297084" lat="45.78495389">
                <ele>84</ele>
                <time>2012-09-28T17:17:51.691+02:00</time>
            </trkpt>
            <trkpt lon="19.08296223" lat="45.78520973">
                <ele>84</ele>
                <time>2012-09-28T17:17:55.691+02:00</time>
            </trkpt>
            <trkpt lon="19.08587139" lat="45.78402028">
                <ele>85</ele>
                <time>2012-09-28T17:19:15.691+02:00</time>
            </trkpt>
            <trkpt lon="19.08723639" lat="45.78336001">
                <ele>84</ele>
                <time>2012-09-28T17:19:53.691+02:00</time>
            </trkpt>
            <trkpt lon="19.08842445" lat="45.78252612">
                <ele>84</ele>
                <time>2012-09-28T17:20:28.691+02:00</time>
            </trkpt>
            <trkpt lon="19.08904917" lat="45.78210945">
                <ele>85</ele>
                <time>2012-09-28T17:20:46.691+02:00</time>
            </trkpt>
            <trkpt lon="19.09096751" lat="45.78133028">
                <ele>82</ele>
                <time>2012-09-28T17:21:38.691+02:00</time>
            </trkpt>
            <trkpt lon="19.09323000" lat="45.77940417">
                <ele>83</ele>
                <time>2012-09-28T17:22:47.691+02:00</time>
            </trkpt>
            <trkpt lon="19.09498278" lat="45.77810973">
                <ele>85</ele>
                <time>2012-09-28T17:23:39.691+02:00</time>
            </trkpt>
            <trkpt lon="19.09609778" lat="45.77761584">
                <ele>83</ele>
                <time>2012-09-28T17:24:09.691+02:00</time>
            </trkpt>
            <trkpt lon="19.09888862" lat="45.77629612">
                <ele>84</ele>
                <time>2012-09-28T17:25:27.691+02:00</time>
            </trkpt>
            <trkpt lon="19.09999362" lat="45.77572695">
                <ele>84</ele>
                <time>2012-09-28T17:25:58.691+02:00</time>
            </trkpt>
            <trkpt lon="19.10178250" lat="45.77640667">
                <ele>86</ele>
                <time>2012-09-28T17:26:47.691+02:00</time>
            </trkpt>
            <trkpt lon="19.10423445" lat="45.77519445">
                <ele>87</ele>
                <time>2012-09-28T17:27:55.691+02:00</time>
            </trkpt>
            <trkpt lon="19.10579584" lat="45.77437834">
                <ele>86</ele>
                <time>2012-09-28T17:28:39.691+02:00</time>
            </trkpt>
            <trkpt lon="19.10721695" lat="45.77385445">
                <ele>87</ele>
                <time>2012-09-28T17:29:18.691+02:00</time>
            </trkpt>
            <trkpt lon="19.10889362" lat="45.77274751">
                <ele>88</ele>
                <time>2012-09-28T17:30:07.691+02:00</time>
            </trkpt>
            <trkpt lon="19.11173806" lat="45.77152612">
                <ele>89</ele>
                <time>2012-09-28T17:31:25.691+02:00</time>
            </trkpt>
            <trkpt lon="19.11205556" lat="45.77126278">
                <ele>89</ele>
                <time>2012-09-28T17:31:34.691+02:00</time>
            </trkpt>
            <trkpt lon="19.11225000" lat="45.77092417">
                <ele>89</ele>
                <time>2012-09-28T17:31:42.691+02:00</time>
            </trkpt>
            <trkpt lon="19.11203834" lat="45.77105445">
                <ele>89</ele>
                <time>2012-09-28T17:31:48.691+02:00</time>
            </trkpt>
            <trkpt lon="19.11106334" lat="45.76992250">
                <ele>85</ele>
                <time>2012-09-28T17:32:21.691+02:00</time>
            </trkpt>
            <trkpt lon="19.10813473" lat="45.76812362">
                <ele>87</ele>
                <time>2012-09-28T17:33:45.691+02:00</time>
            </trkpt>
            <trkpt lon="19.10547889" lat="45.76547501">
                <ele>87</ele>
                <time>2012-09-28T17:35:10.691+02:00</time>
            </trkpt>
            <trkpt lon="19.10391501" lat="45.76437723">
                <ele>86</ele>
                <time>2012-09-28T17:35:56.691+02:00</time>
            </trkpt>
            <trkpt lon="19.10249556" lat="45.76350417">
                <ele>88</ele>
                <time>2012-09-28T17:36:37.691+02:00</time>
            </trkpt>
            <trkpt lon="19.09930167" lat="45.76054751">
                <ele>86</ele>
                <time>2012-09-28T17:38:17.691+02:00</time>
            </trkpt>
            <trkpt lon="19.09310806" lat="45.75433834">
                <ele>84</ele>
                <time>2012-09-28T17:41:37.691+02:00</time>
            </trkpt>
            <trkpt lon="19.09174806" lat="45.75307751">
                <ele>84</ele>
                <time>2012-09-28T17:42:19.691+02:00</time>
            </trkpt>
            <trkpt lon="19.08557445" lat="45.74990000">
                <ele>84</ele>
                <time>2012-09-28T17:45:12.691+02:00</time>
            </trkpt>
            <trkpt lon="19.07543167" lat="45.74511806">
                <ele>86</ele>
                <time>2012-09-28T17:49:55.691+02:00</time>
            </trkpt>
            <trkpt lon="19.06348584" lat="45.73962167">
                <ele>84</ele>
                <time>2012-09-28T17:55:27.691+02:00</time>
            </trkpt>
            <trkpt lon="19.05791278" lat="45.73679445">
                <ele>83</ele>
                <time>2012-09-28T17:58:03.691+02:00</time>
            </trkpt>
            <trkpt lon="19.05771473" lat="45.73665834">
                <ele>85</ele>
                <time>2012-09-28T17:58:09.691+02:00</time>
            </trkpt>
            <trkpt lon="19.05485695" lat="45.73509667">
                <ele>79</ele>
                <time>2012-09-28T17:59:30.691+02:00</time>
            </trkpt>
            <trkpt lon="19.05213862" lat="45.73315667">
                <ele>82</ele>
                <time>2012-09-28T18:00:51.691+02:00</time>
            </trkpt>
            <trkpt lon="19.05003973" lat="45.73175000">
                <ele>81</ele>
                <time>2012-09-28T18:01:52.691+02:00</time>
            </trkpt>
            <trkpt lon="19.04758000" lat="45.73234834">
                <ele>80</ele>
                <time>2012-09-28T18:02:58.691+02:00</time>
            </trkpt>
            <trkpt lon="19.04075084" lat="45.73411028">
                <ele>81</ele>
                <time>2012-09-28T18:06:02.691+02:00</time>
            </trkpt>
            <trkpt lon="19.03601362" lat="45.73530973">
                <ele>83</ele>
                <time>2012-09-28T18:08:09.691+02:00</time>
            </trkpt>
            <trkpt lon="19.03201695" lat="45.73626556">
                <ele>83</ele>
                <time>2012-09-28T18:09:56.691+02:00</time>
            </trkpt>
            <trkpt lon="19.02845389" lat="45.73701556">
                <ele>81</ele>
                <time>2012-09-28T18:11:31.691+02:00</time>
            </trkpt>
            <trkpt lon="19.02335195" lat="45.73855000">
                <ele>81</ele>
                <time>2012-09-28T18:13:49.691+02:00</time>
            </trkpt>
            <trkpt lon="19.01840917" lat="45.74000139">
                <ele>81</ele>
                <time>2012-09-28T18:16:02.691+02:00</time>
            </trkpt>
            <trkpt lon="19.01540889" lat="45.74058834">
                <ele>84</ele>
                <time>2012-09-28T18:17:22.691+02:00</time>
            </trkpt>
            <trkpt lon="19.01508473" lat="45.74094973">
                <ele>85</ele>
                <time>2012-09-28T18:17:33.691+02:00</time>
            </trkpt>
            <trkpt lon="19.01354501" lat="45.74132584">
                <ele>84</ele>
                <time>2012-09-28T18:18:14.691+02:00</time>
            </trkpt>
            <trkpt lon="19.01354501" lat="45.74132584">
                <ele>84</ele>
                <time>2012-09-28T18:18:14.691+02:00</time>
            </trkpt>
            <trkpt lon="19.01324167" lat="45.74127778">
                <ele>84</ele>
                <time>2012-09-28T18:18:22.691+02:00</time>
            </trkpt>
            <trkpt lon="19.01225556" lat="45.73985167">
                <ele>85</ele>
                <time>2012-09-28T18:18:59.691+02:00</time>
            </trkpt>
            <trkpt lon="19.01093584" lat="45.73752306">
                <ele>83</ele>
                <time>2012-09-28T18:19:54.691+02:00</time>
            </trkpt>
            <trkpt lon="19.01093584" lat="45.73752306">
                <ele>83</ele>
                <time>2012-09-28T18:19:54.691+02:00</time>
            </trkpt>
            <trkpt lon="19.00947195" lat="45.73754028">
                <ele>84</ele>
                <time>2012-09-28T18:20:33.691+02:00</time>
            </trkpt>
            <trkpt lon="19.00867612" lat="45.73739278">
                <ele>83</ele>
                <time>2012-09-28T18:20:54.691+02:00</time>
            </trkpt>
            <trkpt lon="19.00683389" lat="45.73664945">
                <ele>82</ele>
                <time>2012-09-28T18:21:44.691+02:00</time>
            </trkpt>
            <trkpt lon="18.99898167" lat="45.73404139">
                <ele>82</ele>
                <time>2012-09-28T18:25:17.691+02:00</time>
            </trkpt>
            <trkpt lon="18.99277501" lat="45.73195778">
                <ele>80</ele>
                <time>2012-09-28T18:28:05.691+02:00</time>
            </trkpt>
            <trkpt lon="18.98592584" lat="45.72931362">
                <ele>80</ele>
                <time>2012-09-28T18:31:12.691+02:00</time>
            </trkpt>
            <trkpt lon="18.98261473" lat="45.72814500">
                <ele>80</ele>
                <time>2012-09-28T18:32:42.691+02:00</time>
            </trkpt>
            <trkpt lon="18.98182417" lat="45.72808834">
                <ele>82</ele>
                <time>2012-09-28T18:33:03.691+02:00</time>
            </trkpt>
            <trkpt lon="18.98093195" lat="45.72861834">
                <ele>81</ele>
                <time>2012-09-28T18:33:28.691+02:00</time>
            </trkpt>
            <trkpt lon="18.98034139" lat="45.73032528">
                <ele>82</ele>
                <time>2012-09-28T18:34:03.691+02:00</time>
            </trkpt>
            <trkpt lon="18.98015250" lat="45.73049250">
                <ele>82</ele>
                <time>2012-09-28T18:34:08.691+02:00</time>
            </trkpt>
            <trkpt lon="18.97801973" lat="45.73046417">
                <ele>85</ele>
                <time>2012-09-28T18:35:05.691+02:00</time>
            </trkpt>
            <trkpt lon="18.97577056" lat="45.73046251">
                <ele>81</ele>
                <time>2012-09-28T18:36:04.691+02:00</time>
            </trkpt>
            <trkpt lon="18.97608695" lat="45.73054417">
                <ele>81</ele>
                <time>2012-09-28T18:36:12.691+02:00</time>
            </trkpt>
            <trkpt lon="18.97422306" lat="45.72923473">
                <ele>81</ele>
                <time>2012-09-28T18:37:07.691+02:00</time>
            </trkpt>
            <trkpt lon="18.97321667" lat="45.72840556">
                <ele>80</ele>
                <time>2012-09-28T18:37:37.691+02:00</time>
            </trkpt>
            <trkpt lon="18.97130251" lat="45.72738973">
                <ele>80</ele>
                <time>2012-09-28T18:38:31.691+02:00</time>
            </trkpt>
            <trkpt lon="18.96871223" lat="45.72653223">
                <ele>80</ele>
                <time>2012-09-28T18:39:41.691+02:00</time>
            </trkpt>
            <trkpt lon="18.96618417" lat="45.72563334">
                <ele>80</ele>
                <time>2012-09-28T18:40:50.691+02:00</time>
            </trkpt>
            <trkpt lon="18.96510445" lat="45.72514445">
                <ele>81</ele>
                <time>2012-09-28T18:41:20.691+02:00</time>
            </trkpt>
            <trkpt lon="18.96394056" lat="45.72362917">
                <ele>81</ele>
                <time>2012-09-28T18:42:01.691+02:00</time>
            </trkpt>
            <trkpt lon="18.96297306" lat="45.72173334">
                <ele>79</ele>
                <time>2012-09-28T18:42:44.691+02:00</time>
            </trkpt>
            <trkpt lon="18.96219973" lat="45.72120723">
                <ele>81</ele>
                <time>2012-09-28T18:43:07.691+02:00</time>
            </trkpt>
            <trkpt lon="18.95996751" lat="45.72056945">
                <ele>79</ele>
                <time>2012-09-28T18:44:07.691+02:00</time>
            </trkpt>
            <trkpt lon="18.95784278" lat="45.71865278">
                <ele>80</ele>
                <time>2012-09-28T18:45:13.691+02:00</time>
            </trkpt>
            <trkpt lon="18.95681973" lat="45.71829278">
                <ele>80</ele>
                <time>2012-09-28T18:45:40.691+02:00</time>
            </trkpt>
            <trkpt lon="18.95580917" lat="45.71925695">
                <ele>80</ele>
                <time>2012-09-28T18:46:12.691+02:00</time>
            </trkpt>
            <trkpt lon="18.95463334" lat="45.72141334">
                <ele>82</ele>
                <time>2012-09-28T18:47:03.691+02:00</time>
            </trkpt>
            <trkpt lon="18.95297612" lat="45.72172528">
                <ele>80</ele>
                <time>2012-09-28T18:47:47.691+02:00</time>
            </trkpt>
            <trkpt lon="18.94912889" lat="45.72191251">
                <ele>80</ele>
                <time>2012-09-28T18:49:29.691+02:00</time>
            </trkpt>
            <trkpt lon="18.94625917" lat="45.72203167">
                <ele>81</ele>
                <time>2012-09-28T18:50:45.691+02:00</time>
            </trkpt>
            <trkpt lon="18.94565306" lat="45.72193556">
                <ele>81</ele>
                <time>2012-09-28T18:51:01.691+02:00</time>
            </trkpt>
            <trkpt lon="18.94355528" lat="45.72095834">
                <ele>81</ele>
                <time>2012-09-28T18:51:59.691+02:00</time>
            </trkpt>
            <trkpt lon="18.94148751" lat="45.72083556">
                <ele>80</ele>
                <time>2012-09-28T18:52:53.691+02:00</time>
            </trkpt>
            <trkpt lon="18.93697639" lat="45.72083973">
                <ele>79</ele>
                <time>2012-09-28T18:54:52.691+02:00</time>
            </trkpt>
            <trkpt lon="18.93374139" lat="45.72095195">
                <ele>80</ele>
                <time>2012-09-28T18:56:17.691+02:00</time>
            </trkpt>
            <trkpt lon="18.93176528" lat="45.72164195">
                <ele>80</ele>
                <time>2012-09-28T18:57:10.691+02:00</time>
            </trkpt>
            <trkpt lon="18.92775195" lat="45.72302112">
                <ele>82</ele>
                <time>2012-09-28T18:58:59.691+02:00</time>
            </trkpt>
            <trkpt lon="18.92511028" lat="45.72357084">
                <ele>80</ele>
                <time>2012-09-28T19:00:09.691+02:00</time>
            </trkpt>
            <trkpt lon="18.92293139" lat="45.72314695">
                <ele>81</ele>
                <time>2012-09-28T19:01:07.691+02:00</time>
            </trkpt>
            <trkpt lon="18.92069806" lat="45.72255112">
                <ele>81</ele>
                <time>2012-09-28T19:02:07.691+02:00</time>
            </trkpt>
            <trkpt lon="18.92009667" lat="45.72232667">
                <ele>81</ele>
                <time>2012-09-28T19:02:23.691+02:00</time>
            </trkpt>
            <trkpt lon="18.91973195" lat="45.72065501">
                <ele>80</ele>
                <time>2012-09-28T19:02:55.691+02:00</time>
            </trkpt>
            <trkpt lon="18.91734751" lat="45.71920251">
                <ele>81</ele>
                <time>2012-09-28T19:04:03.691+02:00</time>
            </trkpt>
            <trkpt lon="18.91686917" lat="45.71731500">
                <ele>79</ele>
                <time>2012-09-28T19:04:40.691+02:00</time>
            </trkpt>
            <trkpt lon="18.91677278" lat="45.71663001">
                <ele>79</ele>
                <time>2012-09-28T19:04:52.691+02:00</time>
            </trkpt>
            <trkpt lon="18.91686056" lat="45.71590584">
                <ele>79</ele>
                <time>2012-09-28T19:05:05.691+02:00</time>
            </trkpt>
            <trkpt lon="18.91686056" lat="45.71590584">
                <ele>79</ele>
                <time>2012-09-28T19:05:05.691+02:00</time>
            </trkpt>
            <trkpt lon="18.91688056" lat="45.71372862">
                <ele>78</ele>
                <time>2012-09-28T19:05:45.691+02:00</time>
            </trkpt>
            <trkpt lon="18.91690751" lat="45.71300306">
                <ele>78</ele>
                <time>2012-09-28T19:05:58.691+02:00</time>
            </trkpt>
            <trkpt lon="18.91788251" lat="45.70973334">
                <ele>80</ele>
                <time>2012-09-28T19:07:04.691+02:00</time>
            </trkpt>
            <trkpt lon="18.91933945" lat="45.70660001">
                <ele>79</ele>
                <time>2012-09-28T19:08:13.691+02:00</time>
            </trkpt>
            <trkpt lon="18.92057889" lat="45.70440223">
                <ele>79</ele>
                <time>2012-09-28T19:09:05.691+02:00</time>
            </trkpt>
            <trkpt lon="18.92177556" lat="45.70335667">
                <ele>78</ele>
                <time>2012-09-28T19:09:42.691+02:00</time>
            </trkpt>
            <trkpt lon="18.92387056" lat="45.70309139">
                <ele>80</ele>
                <time>2012-09-28T19:10:38.691+02:00</time>
            </trkpt>
            <trkpt lon="18.92523806" lat="45.70201056">
                <ele>82</ele>
                <time>2012-09-28T19:11:19.691+02:00</time>
            </trkpt>
            <trkpt lon="18.92549028" lat="45.70013639">
                <ele>83</ele>
                <time>2012-09-28T19:11:54.691+02:00</time>
            </trkpt>
            <trkpt lon="18.92689612" lat="45.69836862">
                <ele>81</ele>
                <time>2012-09-28T19:12:43.691+02:00</time>
            </trkpt>
            <trkpt lon="18.92984584" lat="45.69769639">
                <ele>79</ele>
                <time>2012-09-28T19:14:02.691+02:00</time>
            </trkpt>
            <trkpt lon="18.93196334" lat="45.69645362">
                <ele>80</ele>
                <time>2012-09-28T19:15:02.691+02:00</time>
            </trkpt>
            <trkpt lon="18.93337528" lat="45.69451528">
                <ele>80</ele>
                <time>2012-09-28T19:15:53.691+02:00</time>
            </trkpt>
            <trkpt lon="18.93507723" lat="45.69296612">
                <ele>81</ele>
                <time>2012-09-28T19:16:46.691+02:00</time>
            </trkpt>
            <trkpt lon="18.93677306" lat="45.69158778">
                <ele>81</ele>
                <time>2012-09-28T19:17:37.691+02:00</time>
            </trkpt>
            <trkpt lon="18.93859056" lat="45.69021139">
                <ele>79</ele>
                <time>2012-09-28T19:18:31.691+02:00</time>
            </trkpt>
            <trkpt lon="18.94040473" lat="45.68892056">
                <ele>80</ele>
                <time>2012-09-28T19:19:24.691+02:00</time>
            </trkpt>
            <trkpt lon="18.94139778" lat="45.68842612">
                <ele>80</ele>
                <time>2012-09-28T19:19:51.691+02:00</time>
            </trkpt>
            <trkpt lon="18.94139778" lat="45.68842612">
                <ele>80</ele>
                <time>2012-09-28T19:19:51.691+02:00</time>
            </trkpt>
            <trkpt lon="18.94256223" lat="45.68823362">
                <ele>80</ele>
                <time>2012-09-28T19:20:22.691+02:00</time>
            </trkpt>
            <trkpt lon="18.94476195" lat="45.68805973">
                <ele>81</ele>
                <time>2012-09-28T19:21:20.691+02:00</time>
            </trkpt>
            <trkpt lon="18.94722223" lat="45.68742084">
                <ele>81</ele>
                <time>2012-09-28T19:22:26.691+02:00</time>
            </trkpt>
            <trkpt lon="18.95054084" lat="45.68662639">
                <ele>79</ele>
                <time>2012-09-28T19:23:55.691+02:00</time>
            </trkpt>
            <trkpt lon="18.95338501" lat="45.68548195">
                <ele>81</ele>
                <time>2012-09-28T19:25:13.691+02:00</time>
            </trkpt>
            <trkpt lon="18.95684917" lat="45.68429778">
                <ele>80</ele>
                <time>2012-09-28T19:26:47.691+02:00</time>
            </trkpt>
            <trkpt lon="18.96115362" lat="45.68293084">
                <ele>81</ele>
                <time>2012-09-28T19:28:44.691+02:00</time>
            </trkpt>
            <trkpt lon="18.96115362" lat="45.68293084">
                <ele>81</ele>
                <time>2012-09-28T19:28:44.691+02:00</time>
            </trkpt>
            <trkpt lon="18.96449223" lat="45.68158139">
                <ele>81</ele>
                <time>2012-09-28T19:30:15.691+02:00</time>
            </trkpt>
            <trkpt lon="18.96622945" lat="45.68071556">
                <ele>81</ele>
                <time>2012-09-28T19:31:03.691+02:00</time>
            </trkpt>
            <trkpt lon="18.96700056" lat="45.68019806">
                <ele>83</ele>
                <time>2012-09-28T19:31:26.691+02:00</time>
            </trkpt>
            <trkpt lon="18.96893362" lat="45.67877473">
                <ele>82</ele>
                <time>2012-09-28T19:32:23.691+02:00</time>
            </trkpt>
            <trkpt lon="18.96909889" lat="45.67820056">
                <ele>81</ele>
                <time>2012-09-28T19:32:34.691+02:00</time>
            </trkpt>
            <trkpt lon="18.96903445" lat="45.67767723">
                <ele>81</ele>
                <time>2012-09-28T19:32:43.691+02:00</time>
            </trkpt>
            <trkpt lon="18.96914556" lat="45.67676195">
                <ele>79</ele>
                <time>2012-09-28T19:33:00.691+02:00</time>
            </trkpt>
            <trkpt lon="18.96941806" lat="45.67616001">
                <ele>81</ele>
                <time>2012-09-28T19:33:13.691+02:00</time>
            </trkpt>
            <trkpt lon="18.96968278" lat="45.67552028">
                <ele>80</ele>
                <time>2012-09-28T19:33:26.691+02:00</time>
            </trkpt>
            <trkpt lon="18.97007806" lat="45.67460306">
                <ele>81</ele>
                <time>2012-09-28T19:33:46.691+02:00</time>
            </trkpt>
            <trkpt lon="18.97114806" lat="45.67439834">
                <ele>82</ele>
                <time>2012-09-28T19:34:14.691+02:00</time>
            </trkpt>
            <trkpt lon="18.97262639" lat="45.67378417">
                <ele>85</ele>
                <time>2012-09-28T19:34:55.691+02:00</time>
            </trkpt>
            <trkpt lon="18.97463973" lat="45.67345889">
                <ele>85</ele>
                <time>2012-09-28T19:35:48.691+02:00</time>
            </trkpt>
            <trkpt lon="18.97491584" lat="45.67341723">
                <ele>85</ele>
                <time>2012-09-28T19:35:55.691+02:00</time>
            </trkpt>
            <trkpt lon="18.97500445" lat="45.67336056">
                <ele>85</ele>
                <time>2012-09-28T19:35:59.691+02:00</time>
            </trkpt>
            <trkpt lon="18.97454334" lat="45.67268917">
                <ele>85</ele>
                <time>2012-09-28T19:36:26.691+02:00</time>
            </trkpt>
            <trkpt lon="18.97316112" lat="45.67051917">
                <ele>84</ele>
                <time>2012-09-28T19:37:50.691+02:00</time>
            </trkpt>
            <trkpt lon="18.97250889" lat="45.66957112">
                <ele>84</ele>
                <time>2012-09-28T19:38:28.691+02:00</time>
            </trkpt>
            <trkpt lon="18.97254389" lat="45.66958389">
                <ele>84</ele>
                <time>2012-09-28T19:38:28.691+02:00</time>
            </trkpt>
            <trkpt lon="18.97181001" lat="45.66853084">
                <ele>83</ele>
                <time>2012-09-28T19:38:55.691+02:00</time>
            </trkpt>
            <trkpt lon="18.97163639" lat="45.66829223">
                <ele>84</ele>
                <time>2012-09-28T19:39:01.691+02:00</time>
            </trkpt>
            <trkpt lon="18.97127445" lat="45.66778251">
                <ele>84</ele>
                <time>2012-09-28T19:39:14.691+02:00</time>
            </trkpt>
            <trkpt lon="18.97099445" lat="45.66738223">
                <ele>84</ele>
                <time>2012-09-28T19:39:24.691+02:00</time>
            </trkpt>
            <trkpt lon="18.97130723" lat="45.66637112">
                <ele>82</ele>
                <time>2012-09-28T19:39:44.691+02:00</time>
            </trkpt>
            <trkpt lon="18.97161917" lat="45.66547362">
                <ele>83</ele>
                <time>2012-09-28T19:40:02.691+02:00</time>
            </trkpt>
            <trkpt lon="18.97223000" lat="45.66468223">
                <ele>81</ele>
                <time>2012-09-28T19:40:23.691+02:00</time>
            </trkpt>
            <trkpt lon="18.97381612" lat="45.66291723">
                <ele>79</ele>
                <time>2012-09-28T19:41:16.691+02:00</time>
            </trkpt>
            <trkpt lon="18.97523945" lat="45.66059389">
                <ele>82</ele>
                <time>2012-09-28T19:42:13.691+02:00</time>
            </trkpt>
            <trkpt lon="18.97641973" lat="45.65826639">
                <ele>80</ele>
                <time>2012-09-28T19:43:06.691+02:00</time>
            </trkpt>
            <trkpt lon="18.97838167" lat="45.65958223">
                <ele>82</ele>
                <time>2012-09-28T19:44:03.691+02:00</time>
            </trkpt>
            <trkpt lon="18.98010028" lat="45.66089362">
                <ele>83</ele>
                <time>2012-09-28T19:44:54.691+02:00</time>
            </trkpt>
            <trkpt lon="18.98074806" lat="45.66150278">
                <ele>83</ele>
                <time>2012-09-28T19:45:14.691+02:00</time>
            </trkpt>
            <trkpt lon="18.98223473" lat="45.66080334">
                <ele>82</ele>
                <time>2012-09-28T19:45:55.691+02:00</time>
            </trkpt>
            <trkpt lon="18.98677945" lat="45.65973056">
                <ele>84</ele>
                <time>2012-09-28T19:47:57.691+02:00</time>
            </trkpt>
            <trkpt lon="18.98418028" lat="45.65579917">
                <ele>82</ele>
                <time>2012-09-28T19:49:37.691+02:00</time>
            </trkpt>
            <trkpt lon="18.98139306" lat="45.65203528">
                <ele>81</ele>
                <time>2012-09-28T19:51:18.691+02:00</time>
            </trkpt>
            <trkpt lon="18.98092917" lat="45.65138639">
                <ele>82</ele>
                <time>2012-09-28T19:51:35.691+02:00</time>
            </trkpt>
            <trkpt lon="18.98076501" lat="45.65087112">
                <ele>83</ele>
                <time>2012-09-28T19:51:45.691+02:00</time>
            </trkpt>
            <trkpt lon="18.98075667" lat="45.65110417">
                <ele>83</ele>
                <time>2012-09-28T19:51:49.691+02:00</time>
            </trkpt>
            <trkpt lon="18.98108000" lat="45.65057778">
                <ele>81</ele>
                <time>2012-09-28T19:52:01.691+02:00</time>
            </trkpt>
            <trkpt lon="18.98417584" lat="45.64913806">
                <ele>84</ele>
                <time>2012-09-28T19:53:27.691+02:00</time>
            </trkpt>
            <trkpt lon="18.98948750" lat="45.64701139">
                <ele>79</ele>
                <time>2012-09-28T19:55:53.691+02:00</time>
            </trkpt>
            <trkpt lon="18.99411751" lat="45.64521417">
                <ele>82</ele>
                <time>2012-09-28T19:58:00.691+02:00</time>
            </trkpt>
            <trkpt lon="18.99603389" lat="45.64439389">
                <ele>81</ele>
                <time>2012-09-28T19:58:53.691+02:00</time>
            </trkpt>
            <trkpt lon="18.99684167" lat="45.64393834">
                <ele>81</ele>
                <time>2012-09-28T19:59:16.691+02:00</time>
            </trkpt>
            <trkpt lon="18.99697389" lat="45.64364167">
                <ele>81</ele>
                <time>2012-09-28T19:59:22.691+02:00</time>
            </trkpt>
            <trkpt lon="18.99641584" lat="45.64222278">
                <ele>81</ele>
                <time>2012-09-28T19:59:52.691+02:00</time>
            </trkpt>
            <trkpt lon="18.99402362" lat="45.63932000">
                <ele>82</ele>
                <time>2012-09-28T20:01:15.691+02:00</time>
            </trkpt>
            <trkpt lon="18.99150250" lat="45.63662834">
                <ele>80</ele>
                <time>2012-09-28T20:02:38.691+02:00</time>
            </trkpt>
            <trkpt lon="18.98681500" lat="45.63155028">
                <ele>82</ele>
                <time>2012-09-28T20:05:14.691+02:00</time>
            </trkpt>
            <trkpt lon="18.98569917" lat="45.63042028">
                <ele>81</ele>
                <time>2012-09-28T20:05:50.691+02:00</time>
            </trkpt>
            <trkpt lon="18.97976778" lat="45.62442306">
                <ele>76</ele>
                <time>2012-09-28T20:09:02.691+02:00</time>
            </trkpt>
            <trkpt lon="18.97642723" lat="45.62086278">
                <ele>77</ele>
                <time>2012-09-28T20:10:52.691+02:00</time>
            </trkpt>
            <trkpt lon="18.97584528" lat="45.62012639">
                <ele>77</ele>
                <time>2012-09-28T20:11:12.691+02:00</time>
            </trkpt>
            <trkpt lon="18.97587917" lat="45.61918778">
                <ele>77</ele>
                <time>2012-09-28T20:11:29.691+02:00</time>
            </trkpt>
            <trkpt lon="18.97613695" lat="45.61710001">
                <ele>77</ele>
                <time>2012-09-28T20:12:08.691+02:00</time>
            </trkpt>
            <trkpt lon="18.97660223" lat="45.61262501">
                <ele>76</ele>
                <time>2012-09-28T20:13:31.691+02:00</time>
            </trkpt>
            <trkpt lon="18.97597389" lat="45.60979556">
                <ele>79</ele>
                <time>2012-09-28T20:14:26.691+02:00</time>
            </trkpt>
            <trkpt lon="18.97471834" lat="45.60580251">
                <ele>77</ele>
                <time>2012-09-28T20:15:47.691+02:00</time>
            </trkpt>
            <trkpt lon="18.97389195" lat="45.60510445">
                <ele>76</ele>
                <time>2012-09-28T20:16:12.691+02:00</time>
            </trkpt>
            <trkpt lon="18.97293751" lat="45.60457528">
                <ele>76</ele>
                <time>2012-09-28T20:16:39.691+02:00</time>
            </trkpt>
            <trkpt lon="18.97199112" lat="45.60383251">
                <ele>76</ele>
                <time>2012-09-28T20:17:07.691+02:00</time>
            </trkpt>
            <trkpt lon="18.96999334" lat="45.60187556">
                <ele>79</ele>
                <time>2012-09-28T20:18:11.691+02:00</time>
            </trkpt>
            <trkpt lon="18.96709778" lat="45.59951834">
                <ele>79</ele>
                <time>2012-09-28T20:19:39.691+02:00</time>
            </trkpt>
            <trkpt lon="18.96693112" lat="45.59908834">
                <ele>76</ele>
                <time>2012-09-28T20:19:48.691+02:00</time>
            </trkpt>
            <trkpt lon="18.96716723" lat="45.59759806">
                <ele>77</ele>
                <time>2012-09-28T20:20:16.691+02:00</time>
            </trkpt>
            <trkpt lon="18.96811834" lat="45.59483973">
                <ele>77</ele>
                <time>2012-09-28T20:21:13.691+02:00</time>
            </trkpt>
            <trkpt lon="18.96743917" lat="45.59175334">
                <ele>77</ele>
                <time>2012-09-28T20:22:12.691+02:00</time>
            </trkpt>
            <trkpt lon="18.96743917" lat="45.59175334">
                <ele>77</ele>
                <time>2012-09-28T20:22:12.691+02:00</time>
            </trkpt>
            <trkpt lon="18.96603056" lat="45.59202695">
                <ele>76</ele>
                <time>2012-09-28T20:22:49.691+02:00</time>
            </trkpt>
            <trkpt lon="18.96517028" lat="45.59226778">
                <ele>76</ele>
                <time>2012-09-28T20:23:12.691+02:00</time>
            </trkpt>
            <trkpt lon="18.96481028" lat="45.59213334">
                <ele>75</ele>
                <time>2012-09-28T20:23:21.691+02:00</time>
            </trkpt>
            <trkpt lon="18.96392001" lat="45.59151973">
                <ele>76</ele>
                <time>2012-09-28T20:23:47.691+02:00</time>
            </trkpt>
            <trkpt lon="18.96297084" lat="45.59086223">
                <ele>77</ele>
                <time>2012-09-28T20:24:15.691+02:00</time>
            </trkpt>
            <trkpt lon="18.96096528" lat="45.59082639">
                <ele>77</ele>
                <time>2012-09-28T20:25:08.691+02:00</time>
            </trkpt>
            <trkpt lon="18.95440445" lat="45.59062389">
                <ele>77</ele>
                <time>2012-09-28T20:28:01.691+02:00</time>
            </trkpt>
            <trkpt lon="18.95355806" lat="45.59048056">
                <ele>77</ele>
                <time>2012-09-28T20:28:23.691+02:00</time>
            </trkpt>
            <trkpt lon="18.94766889" lat="45.58687362">
                <ele>77</ele>
                <time>2012-09-28T20:31:12.691+02:00</time>
            </trkpt>
            <trkpt lon="18.94409556" lat="45.58480251">
                <ele>84</ele>
                <time>2012-09-28T20:32:55.691+02:00</time>
            </trkpt>
            <trkpt lon="18.94087806" lat="45.58299362">
                <ele>87</ele>
                <time>2012-09-28T20:34:27.691+02:00</time>
            </trkpt>
            <trkpt lon="18.93680500" lat="45.58129778">
                <ele>77</ele>
                <time>2012-09-28T20:36:19.691+02:00</time>
            </trkpt>
            <trkpt lon="18.93278862" lat="45.57973056">
                <ele>89</ele>
                <time>2012-09-28T20:38:12.691+02:00</time>
            </trkpt>
            <trkpt lon="18.93037528" lat="45.57921723">
                <ele>92</ele>
                <time>2012-09-28T20:39:17.691+02:00</time>
            </trkpt>
            <trkpt lon="18.92650223" lat="45.57872000">
                <ele>81</ele>
                <time>2012-09-28T20:41:00.691+02:00</time>
            </trkpt>
            <trkpt lon="18.92291862" lat="45.57861195">
                <ele>80</ele>
                <time>2012-09-28T20:42:34.691+02:00</time>
            </trkpt>
            <trkpt lon="18.91987723" lat="45.57864223">
                <ele>79</ele>
                <time>2012-09-28T20:43:54.691+02:00</time>
            </trkpt>
            <trkpt lon="18.91737806" lat="45.57881000">
                <ele>83</ele>
                <time>2012-09-28T20:45:01.691+02:00</time>
            </trkpt>
            <trkpt lon="18.91312000" lat="45.57886028">
                <ele>85</ele>
                <time>2012-09-28T20:46:54.691+02:00</time>
            </trkpt>
            <trkpt lon="18.91312000" lat="45.57886028">
                <ele>85</ele>
                <time>2012-09-28T20:46:54.691+02:00</time>
            </trkpt>
            <trkpt lon="18.91307334" lat="45.57683334">
                <ele>79</ele>
                <time>2012-09-28T20:47:31.691+02:00</time>
            </trkpt>
            <trkpt lon="18.91433750" lat="45.57500723">
                <ele>82</ele>
                <time>2012-09-28T20:48:19.691+02:00</time>
            </trkpt>
            <trkpt lon="18.91971639" lat="45.57225445">
                <ele>78</ele>
                <time>2012-09-28T20:50:50.691+02:00</time>
            </trkpt>
            <trkpt lon="18.92641362" lat="45.57042806">
                <ele>83</ele>
                <time>2012-09-28T20:53:51.691+02:00</time>
            </trkpt>
            <trkpt lon="18.93399778" lat="45.57023306">
                <ele>78</ele>
                <time>2012-09-28T20:57:12.691+02:00</time>
            </trkpt>
            <trkpt lon="18.93773528" lat="45.56977806">
                <ele>80</ele>
                <time>2012-09-28T20:58:51.691+02:00</time>
            </trkpt>
            <trkpt lon="18.93979473" lat="45.56895973">
                <ele>80</ele>
                <time>2012-09-28T20:59:47.691+02:00</time>
            </trkpt>
            <trkpt lon="18.94241223" lat="45.56582362">
                <ele>79</ele>
                <time>2012-09-28T21:01:17.691+02:00</time>
            </trkpt>
            <trkpt lon="18.94488584" lat="45.56292223">
                <ele>79</ele>
                <time>2012-09-28T21:02:41.691+02:00</time>
            </trkpt>
            <trkpt lon="18.94839362" lat="45.55946917">
                <ele>83</ele>
                <time>2012-09-28T21:04:34.691+02:00</time>
            </trkpt>
            <trkpt lon="18.95109001" lat="45.55785473">
                <ele>81</ele>
                <time>2012-09-28T21:05:51.691+02:00</time>
            </trkpt>
            <trkpt lon="18.95278500" lat="45.55774251">
                <ele>78</ele>
                <time>2012-09-28T21:06:35.691+02:00</time>
            </trkpt>
            <trkpt lon="18.96188417" lat="45.55861806">
                <ele>80</ele>
                <time>2012-09-28T21:10:37.691+02:00</time>
            </trkpt>
            <trkpt lon="18.96795223" lat="45.55915389">
                <ele>79</ele>
                <time>2012-09-28T21:13:18.691+02:00</time>
            </trkpt>
            <trkpt lon="18.97167862" lat="45.55898250">
                <ele>80</ele>
                <time>2012-09-28T21:14:57.691+02:00</time>
            </trkpt>
            <trkpt lon="18.97167862" lat="45.55898250">
                <ele>80</ele>
                <time>2012-09-28T21:14:57.691+02:00</time>
            </trkpt>
            <trkpt lon="18.97386723" lat="45.55830862">
                <ele>80</ele>
                <time>2012-09-28T21:16:29.691+02:00</time>
            </trkpt>
            <trkpt lon="18.97754001" lat="45.55585556">
                <ele>77</ele>
                <time>2012-09-28T21:19:16.691+02:00</time>
            </trkpt>
            <trkpt lon="18.98093639" lat="45.55544028">
                <ele>80</ele>
                <time>2012-09-28T21:21:37.691+02:00</time>
            </trkpt>
            <trkpt lon="18.98471973" lat="45.55555473">
                <ele>79</ele>
                <time>2012-09-28T21:24:12.691+02:00</time>
            </trkpt>
            <trkpt lon="18.98721056" lat="45.55588362">
                <ele>79</ele>
                <time>2012-09-28T21:25:55.691+02:00</time>
            </trkpt>
            <trkpt lon="18.99062362" lat="45.55673001">
                <ele>79</ele>
                <time>2012-09-28T21:28:17.691+02:00</time>
            </trkpt>
            <trkpt lon="18.99525556" lat="45.55787834">
                <ele>80</ele>
                <time>2012-09-28T21:31:31.691+02:00</time>
            </trkpt>
            <trkpt lon="19.00159806" lat="45.56022278">
                <ele>79</ele>
                <time>2012-09-28T21:36:01.691+02:00</time>
            </trkpt>
            <trkpt lon="19.00568112" lat="45.56143417">
                <ele>80</ele>
                <time>2012-09-28T21:38:53.691+02:00</time>
            </trkpt>
            <trkpt lon="19.00959834" lat="45.56159778">
                <ele>78</ele>
                <time>2012-09-28T21:41:34.691+02:00</time>
            </trkpt>
            <trkpt lon="19.02272778" lat="45.56139834">
                <ele>77</ele>
                <time>2012-09-28T21:50:35.691+02:00</time>
            </trkpt>
            <trkpt lon="19.03194112" lat="45.56098723">
                <ele>78</ele>
                <time>2012-09-28T21:56:55.691+02:00</time>
            </trkpt>
            <trkpt lon="19.03490945" lat="45.56040473">
                <ele>78</ele>
                <time>2012-09-28T21:58:58.691+02:00</time>
            </trkpt>
            <trkpt lon="19.04253139" lat="45.55793834">
                <ele>79</ele>
                <time>2012-09-28T22:04:20.691+02:00</time>
            </trkpt>
            <trkpt lon="19.04672695" lat="45.55591945">
                <ele>76</ele>
                <time>2012-09-28T22:07:22.691+02:00</time>
            </trkpt>
            <trkpt lon="19.04672695" lat="45.55591945">
                <ele>76</ele>
                <time>2012-09-28T22:07:22.691+02:00</time>
            </trkpt>
            <trkpt lon="19.04703362" lat="45.55487945">
                <ele>80</ele>
                <time>2012-09-28T22:07:43.691+02:00</time>
            </trkpt>
            <trkpt lon="19.05152389" lat="45.55215278">
                <ele>78</ele>
                <time>2012-09-28T22:09:52.691+02:00</time>
            </trkpt>
            <trkpt lon="19.05516195" lat="45.55059945">
                <ele>80</ele>
                <time>2012-09-28T22:11:33.691+02:00</time>
            </trkpt>
            <trkpt lon="19.05905306" lat="45.54757695">
                <ele>79</ele>
                <time>2012-09-28T22:13:30.691+02:00</time>
            </trkpt>
            <trkpt lon="19.06261000" lat="45.54640195">
                <ele>80</ele>
                <time>2012-09-28T22:15:06.691+02:00</time>
            </trkpt>
            <trkpt lon="19.06459195" lat="45.54382223">
                <ele>79</ele>
                <time>2012-09-28T22:16:17.691+02:00</time>
            </trkpt>
            <trkpt lon="19.06837917" lat="45.54185556">
                <ele>80</ele>
                <time>2012-09-28T22:18:04.691+02:00</time>
            </trkpt>
            <trkpt lon="19.06942001" lat="45.54105334">
                <ele>79</ele>
                <time>2012-09-28T22:18:35.691+02:00</time>
            </trkpt>
            <trkpt lon="19.07050723" lat="45.53962639">
                <ele>78</ele>
                <time>2012-09-28T22:19:14.691+02:00</time>
            </trkpt>
            <trkpt lon="19.07244389" lat="45.53963139">
                <ele>77</ele>
                <time>2012-09-28T22:20:05.691+02:00</time>
            </trkpt>
            <trkpt lon="19.08276778" lat="45.53643973">
                <ele>81</ele>
                <time>2012-09-28T22:24:45.691+02:00</time>
            </trkpt>
            <trkpt lon="19.08313778" lat="45.53627528">
                <ele>81</ele>
                <time>2012-09-28T22:24:55.691+02:00</time>
            </trkpt>
            <trkpt lon="19.08196584" lat="45.53403362">
                <ele>80</ele>
                <time>2012-09-28T22:25:46.691+02:00</time>
            </trkpt>
            <trkpt lon="19.08168112" lat="45.53262528">
                <ele>80</ele>
                <time>2012-09-28T22:26:13.691+02:00</time>
            </trkpt>
            <trkpt lon="19.08784167" lat="45.52956389">
                <ele>82</ele>
                <time>2012-09-28T22:29:06.691+02:00</time>
            </trkpt>
            <trkpt lon="19.08784167" lat="45.52956389">
                <ele>82</ele>
                <time>2012-09-28T22:29:06.691+02:00</time>
            </trkpt>
            <trkpt lon="19.08985000" lat="45.52902778">
                <ele>81</ele>
                <time>2012-09-28T22:30:00.691+02:00</time>
            </trkpt>
            <trkpt lon="19.09091639" lat="45.53018528">
                <ele>78</ele>
                <time>2012-09-28T22:30:35.691+02:00</time>
            </trkpt>
            <trkpt lon="19.09217778" lat="45.52976056">
                <ele>79</ele>
                <time>2012-09-28T22:31:09.691+02:00</time>
            </trkpt>
            <trkpt lon="19.09368445" lat="45.53194917">
                <ele>81</ele>
                <time>2012-09-28T22:32:06.691+02:00</time>
            </trkpt>
            <trkpt lon="19.09732334" lat="45.53259473">
                <ele>81</ele>
                <time>2012-09-28T22:33:43.691+02:00</time>
            </trkpt>
            <trkpt lon="19.10129278" lat="45.53330389">
                <ele>79</ele>
                <time>2012-09-28T22:35:29.691+02:00</time>
            </trkpt>
            <trkpt lon="19.10435778" lat="45.53370584">
                <ele>78</ele>
                <time>2012-09-28T22:36:50.691+02:00</time>
            </trkpt>
            <trkpt lon="19.11132112" lat="45.53446445">
                <ele>77</ele>
                <time>2012-09-28T22:39:55.691+02:00</time>
            </trkpt>
            <trkpt lon="19.11281750" lat="45.53537501">
                <ele>76</ele>
                <time>2012-09-28T22:40:38.691+02:00</time>
            </trkpt>
            <trkpt lon="19.11598362" lat="45.53556889">
                <ele>77</ele>
                <time>2012-09-28T22:42:02.691+02:00</time>
            </trkpt>
            <trkpt lon="19.11763167" lat="45.53598556">
                <ele>77</ele>
                <time>2012-09-28T22:42:46.691+02:00</time>
            </trkpt>
            <trkpt lon="19.12054973" lat="45.53606889">
                <ele>77</ele>
                <time>2012-09-28T22:44:03.691+02:00</time>
            </trkpt>
            <trkpt lon="19.12557750" lat="45.53480667">
                <ele>78</ele>
                <time>2012-09-28T22:46:18.691+02:00</time>
            </trkpt>
            <trkpt lon="19.12794556" lat="45.53368556">
                <ele>82</ele>
                <time>2012-09-28T22:47:25.691+02:00</time>
            </trkpt>
            <trkpt lon="19.12841806" lat="45.53282639">
                <ele>83</ele>
                <time>2012-09-28T22:47:45.691+02:00</time>
            </trkpt>
            <trkpt lon="19.12989501" lat="45.53009223">
                <ele>82</ele>
                <time>2012-09-28T22:48:49.691+02:00</time>
            </trkpt>
            <trkpt lon="19.12989501" lat="45.53009223">
                <ele>82</ele>
                <time>2012-09-28T22:48:49.691+02:00</time>
            </trkpt>
            <trkpt lon="19.13051223" lat="45.52886834">
                <ele>82</ele>
                <time>2012-09-28T22:49:16.691+02:00</time>
            </trkpt>
            <trkpt lon="19.13202612" lat="45.52560417">
                <ele>77</ele>
                <time>2012-09-28T22:50:28.691+02:00</time>
            </trkpt>
            <trkpt lon="19.13342112" lat="45.52452973">
                <ele>79</ele>
                <time>2012-09-28T22:51:10.691+02:00</time>
            </trkpt>
            <trkpt lon="19.13559139" lat="45.52387028">
                <ele>78</ele>
                <time>2012-09-28T22:52:08.691+02:00</time>
            </trkpt>
            <trkpt lon="19.14191195" lat="45.52213723">
                <ele>80</ele>
                <time>2012-09-28T22:54:59.691+02:00</time>
            </trkpt>
            <trkpt lon="19.14868612" lat="45.52028251">
                <ele>78</ele>
                <time>2012-09-28T22:58:01.691+02:00</time>
            </trkpt>
            <trkpt lon="19.15810612" lat="45.51710195">
                <ele>78</ele>
                <time>2012-09-28T23:02:17.691+02:00</time>
            </trkpt>
            <trkpt lon="19.16434917" lat="45.51439556">
                <ele>78</ele>
                <time>2012-09-28T23:05:09.691+02:00</time>
            </trkpt>
            <trkpt lon="19.17531417" lat="45.51223251">
                <ele>79</ele>
                <time>2012-09-28T23:10:02.691+02:00</time>
            </trkpt>
            <trkpt lon="19.18318445" lat="45.51060362">
                <ele>79</ele>
                <time>2012-09-28T23:13:32.691+02:00</time>
            </trkpt>
            <trkpt lon="19.18803556" lat="45.50974528">
                <ele>79</ele>
                <time>2012-09-28T23:15:41.691+02:00</time>
            </trkpt>
            <trkpt lon="19.18950112" lat="45.50813112">
                <ele>78</ele>
                <time>2012-09-28T23:16:30.691+02:00</time>
            </trkpt>
            <trkpt lon="19.19017056" lat="45.50608862">
                <ele>80</ele>
                <time>2012-09-28T23:17:12.691+02:00</time>
            </trkpt>
            <trkpt lon="19.18627584" lat="45.50457084">
                <ele>78</ele>
                <time>2012-09-28T23:18:58.691+02:00</time>
            </trkpt>
            <trkpt lon="19.18100612" lat="45.50254028">
                <ele>78</ele>
                <time>2012-09-28T23:21:22.691+02:00</time>
            </trkpt>
            <trkpt lon="19.18022806" lat="45.50215973">
                <ele>78</ele>
                <time>2012-09-28T23:21:43.691+02:00</time>
            </trkpt>
            <trkpt lon="19.17954723" lat="45.50096000">
                <ele>78</ele>
                <time>2012-09-28T23:22:11.691+02:00</time>
            </trkpt>
            <trkpt lon="19.18014528" lat="45.49866889">
                <ele>80</ele>
                <time>2012-09-28T23:22:56.691+02:00</time>
            </trkpt>
            <trkpt lon="19.18014528" lat="45.49866889">
                <ele>80</ele>
                <time>2012-09-28T23:22:56.691+02:00</time>
            </trkpt>
            <trkpt lon="19.17808973" lat="45.49870917">
                <ele>80</ele>
                <time>2012-09-28T23:23:50.691+02:00</time>
            </trkpt>
            <trkpt lon="19.17619945" lat="45.49864139">
                <ele>81</ele>
                <time>2012-09-28T23:24:40.691+02:00</time>
            </trkpt>
            <trkpt lon="19.17450889" lat="45.49801251">
                <ele>81</ele>
                <time>2012-09-28T23:25:26.691+02:00</time>
            </trkpt>
            <trkpt lon="19.17278834" lat="45.49518917">
                <ele>82</ele>
                <time>2012-09-28T23:26:35.691+02:00</time>
            </trkpt>
            <trkpt lon="19.17143612" lat="45.49343334">
                <ele>82</ele>
                <time>2012-09-28T23:27:23.691+02:00</time>
            </trkpt>
            <trkpt lon="19.16700612" lat="45.49182195">
                <ele>81</ele>
                <time>2012-09-28T23:29:24.691+02:00</time>
            </trkpt>
            <trkpt lon="19.16119195" lat="45.49045167">
                <ele>75</ele>
                <time>2012-09-28T23:32:00.691+02:00</time>
            </trkpt>
            <trkpt lon="19.14829584" lat="45.48858334">
                <ele>76</ele>
                <time>2012-09-28T23:37:43.691+02:00</time>
            </trkpt>
            <trkpt lon="19.14188639" lat="45.48762973">
                <ele>75</ele>
                <time>2012-09-28T23:40:33.691+02:00</time>
            </trkpt>
            <trkpt lon="19.12862167" lat="45.48553723">
                <ele>75</ele>
                <time>2012-09-28T23:46:26.691+02:00</time>
            </trkpt>
            <trkpt lon="19.12862167" lat="45.48553723">
                <ele>75</ele>
                <time>2012-09-28T23:46:26.691+02:00</time>
            </trkpt>
            <trkpt lon="19.11791473" lat="45.48399778">
                <ele>75</ele>
                <time>2012-09-28T23:51:11.691+02:00</time>
            </trkpt>
            <trkpt lon="19.10767306" lat="45.48251473">
                <ele>76</ele>
                <time>2012-09-28T23:55:44.691+02:00</time>
            </trkpt>
            <trkpt lon="19.09638195" lat="45.48068639">
                <ele>77</ele>
                <time>2012-09-29T00:00:45.691+02:00</time>
            </trkpt>
            <trkpt lon="19.09638195" lat="45.48068639">
                <ele>77</ele>
                <time>2012-09-29T00:00:45.691+02:00</time>
            </trkpt>
            <trkpt lon="19.09259334" lat="45.47989778">
                <ele>76</ele>
                <time>2012-09-29T00:02:26.691+02:00</time>
            </trkpt>
            <trkpt lon="19.09119167" lat="45.47966778">
                <ele>76</ele>
                <time>2012-09-29T00:03:03.691+02:00</time>
            </trkpt>
            <trkpt lon="19.09018501" lat="45.47981278">
                <ele>77</ele>
                <time>2012-09-29T00:03:30.691+02:00</time>
            </trkpt>
            <trkpt lon="19.08672362" lat="45.48082639">
                <ele>77</ele>
                <time>2012-09-29T00:05:03.691+02:00</time>
            </trkpt>
            <trkpt lon="19.08020306" lat="45.48035973">
                <ele>80</ele>
                <time>2012-09-29T00:07:56.691+02:00</time>
            </trkpt>
            <trkpt lon="19.08020306" lat="45.48035973">
                <ele>80</ele>
                <time>2012-09-29T00:07:56.691+02:00</time>
            </trkpt>
            <trkpt lon="19.07566167" lat="45.48139945">
                <ele>86</ele>
                <time>2012-09-29T00:09:59.691+02:00</time>
            </trkpt>
            <trkpt lon="19.07021584" lat="45.48291473">
                <ele>82</ele>
                <time>2012-09-29T00:12:26.691+02:00</time>
            </trkpt>
            <trkpt lon="19.06227667" lat="45.48309278">
                <ele>82</ele>
                <time>2012-09-29T00:15:56.691+02:00</time>
            </trkpt>
            <trkpt lon="19.05735223" lat="45.48233945">
                <ele>81</ele>
                <time>2012-09-29T00:18:07.691+02:00</time>
            </trkpt>
            <trkpt lon="19.05137139" lat="45.48094278">
                <ele>87</ele>
                <time>2012-09-29T00:20:49.691+02:00</time>
            </trkpt>
            <trkpt lon="19.04411473" lat="45.48157778">
                <ele>90</ele>
                <time>2012-09-29T00:24:02.691+02:00</time>
            </trkpt>
            <trkpt lon="19.03796500" lat="45.48257112">
                <ele>86</ele>
                <time>2012-09-29T00:26:46.691+02:00</time>
            </trkpt>
            <trkpt lon="19.03243973" lat="45.48334139">
                <ele>81</ele>
                <time>2012-09-29T00:29:13.691+02:00</time>
            </trkpt>
            <trkpt lon="19.02942889" lat="45.48413778">
                <ele>78</ele>
                <time>2012-09-29T00:30:34.691+02:00</time>
            </trkpt>
            <trkpt lon="19.01902473" lat="45.48944889">
                <ele>81</ele>
                <time>2012-09-29T00:35:27.691+02:00</time>
            </trkpt>
            <trkpt lon="19.01716945" lat="45.48986306">
                <ele>78</ele>
                <time>2012-09-29T00:36:16.691+02:00</time>
            </trkpt>
            <trkpt lon="19.01553751" lat="45.48612584">
                <ele>76</ele>
                <time>2012-09-29T00:37:37.691+02:00</time>
            </trkpt>
            <trkpt lon="19.01563778" lat="45.48635612">
                <ele>76</ele>
                <time>2012-09-29T00:37:42.691+02:00</time>
            </trkpt>
            <trkpt lon="19.01406612" lat="45.48087723">
                <ele>76</ele>
                <time>2012-09-29T00:39:31.691+02:00</time>
            </trkpt>
            <trkpt lon="19.01406612" lat="45.48087723">
                <ele>76</ele>
                <time>2012-09-29T00:39:31.691+02:00</time>
            </trkpt>
            <trkpt lon="19.01349889" lat="45.47872750">
                <ele>78</ele>
                <time>2012-09-29T00:40:14.691+02:00</time>
            </trkpt>
            <trkpt lon="19.01356056" lat="45.47378973">
                <ele>78</ele>
                <time>2012-09-29T00:41:45.691+02:00</time>
            </trkpt>
            <trkpt lon="19.01368723" lat="45.46975751">
                <ele>78</ele>
                <time>2012-09-29T00:43:00.691+02:00</time>
            </trkpt>
            <trkpt lon="19.01617834" lat="45.46747945">
                <ele>76</ele>
                <time>2012-09-29T00:44:18.691+02:00</time>
            </trkpt>
            <trkpt lon="19.01830834" lat="45.46644501">
                <ele>79</ele>
                <time>2012-09-29T00:45:18.691+02:00</time>
            </trkpt>
            <trkpt lon="19.02069084" lat="45.46362917">
                <ele>76</ele>
                <time>2012-09-29T00:46:40.691+02:00</time>
            </trkpt>
            <trkpt lon="19.02289862" lat="45.46036362">
                <ele>75</ele>
                <time>2012-09-29T00:48:04.691+02:00</time>
            </trkpt>
            <trkpt lon="19.02572167" lat="45.45764473">
                <ele>76</ele>
                <time>2012-09-29T00:49:34.691+02:00</time>
            </trkpt>
            <trkpt lon="19.03267750" lat="45.45280917">
                <ele>77</ele>
                <time>2012-09-29T00:52:59.691+02:00</time>
            </trkpt>
            <trkpt lon="19.03359278" lat="45.45202139">
                <ele>77</ele>
                <time>2012-09-29T00:53:27.691+02:00</time>
            </trkpt>
            <trkpt lon="19.03559667" lat="45.45093973">
                <ele>78</ele>
                <time>2012-09-29T00:54:24.691+02:00</time>
            </trkpt>
            <trkpt lon="19.03687473" lat="45.44872112">
                <ele>77</ele>
                <time>2012-09-29T00:55:17.691+02:00</time>
            </trkpt>
            <trkpt lon="19.03687473" lat="45.44872112">
                <ele>77</ele>
                <time>2012-09-29T00:55:17.691+02:00</time>
            </trkpt>
            <trkpt lon="19.03814945" lat="45.44653778">
                <ele>76</ele>
                <time>2012-09-29T00:56:09.691+02:00</time>
            </trkpt>
            <trkpt lon="19.03882667" lat="45.44559334">
                <ele>75</ele>
                <time>2012-09-29T00:56:34.691+02:00</time>
            </trkpt>
            <trkpt lon="19.03987639" lat="45.43726306">
                <ele>75</ele>
                <time>2012-09-29T00:59:11.691+02:00</time>
            </trkpt>
            <trkpt lon="19.04050362" lat="45.42667362">
                <ele>76</ele>
                <time>2012-09-29T01:02:28.691+02:00</time>
            </trkpt>
            <trkpt lon="19.04089667" lat="45.42232501">
                <ele>78</ele>
                <time>2012-09-29T01:03:50.691+02:00</time>
            </trkpt>
            <trkpt lon="19.04147584" lat="45.41960195">
                <ele>76</ele>
                <time>2012-09-29T01:04:42.691+02:00</time>
            </trkpt>
            <trkpt lon="19.04176556" lat="45.41824056">
                <ele>75</ele>
                <time>2012-09-29T01:05:08.691+02:00</time>
            </trkpt>
            <trkpt lon="19.04462806" lat="45.41661584">
                <ele>78</ele>
                <time>2012-09-29T01:06:30.691+02:00</time>
            </trkpt>
            <trkpt lon="19.05092334" lat="45.41288556">
                <ele>79</ele>
                <time>2012-09-29T01:09:30.691+02:00</time>
            </trkpt>
            <trkpt lon="19.05092334" lat="45.41288556">
                <ele>79</ele>
                <time>2012-09-29T01:09:30.691+02:00</time>
            </trkpt>
            <trkpt lon="19.05487167" lat="45.41055445">
                <ele>76</ele>
                <time>2012-09-29T01:11:23.691+02:00</time>
            </trkpt>
            <trkpt lon="19.05586889" lat="45.40735695">
                <ele>75</ele>
                <time>2012-09-29T01:12:28.691+02:00</time>
            </trkpt>
            <trkpt lon="19.05464334" lat="45.40613084">
                <ele>76</ele>
                <time>2012-09-29T01:13:07.691+02:00</time>
            </trkpt>
            <trkpt lon="19.04629806" lat="45.39634528">
                <ele>78</ele>
                <time>2012-09-29T01:17:53.691+02:00</time>
            </trkpt>
            <trkpt lon="19.04373667" lat="45.39344417">
                <ele>77</ele>
                <time>2012-09-29T01:19:19.691+02:00</time>
            </trkpt>
            <trkpt lon="19.04102584" lat="45.39121001">
                <ele>78</ele>
                <time>2012-09-29T01:20:42.691+02:00</time>
            </trkpt>
            <trkpt lon="19.03575306" lat="45.38978001">
                <ele>78</ele>
                <time>2012-09-29T01:23:04.691+02:00</time>
            </trkpt>
            <trkpt lon="19.02957000" lat="45.38355723">
                <ele>76</ele>
                <time>2012-09-29T01:26:24.691+02:00</time>
            </trkpt>
            <trkpt lon="19.02205251" lat="45.38895001">
                <ele>77</ele>
                <time>2012-09-29T01:30:07.691+02:00</time>
            </trkpt>
            <trkpt lon="19.01722973" lat="45.39222778">
                <ele>76</ele>
                <time>2012-09-29T01:32:28.691+02:00</time>
            </trkpt>
            <trkpt lon="19.01576389" lat="45.39247028">
                <ele>75</ele>
                <time>2012-09-29T01:33:07.691+02:00</time>
            </trkpt>
            <trkpt lon="19.00793667" lat="45.38779334">
                <ele>77</ele>
                <time>2012-09-29T01:36:52.691+02:00</time>
            </trkpt>
            <trkpt lon="18.99315000" lat="45.37796750">
                <ele>77</ele>
                <time>2012-09-29T01:44:04.691+02:00</time>
            </trkpt>
            <trkpt lon="18.98776862" lat="45.37429612">
                <ele>77</ele>
                <time>2012-09-29T01:46:42.691+02:00</time>
            </trkpt>
            <trkpt lon="18.98666251" lat="45.37334417">
                <ele>79</ele>
                <time>2012-09-29T01:47:16.691+02:00</time>
            </trkpt>
            <trkpt lon="18.98666251" lat="45.37334417">
                <ele>79</ele>
                <time>2012-09-29T01:47:16.691+02:00</time>
            </trkpt>
            <trkpt lon="18.99033417" lat="45.37073167">
                <ele>80</ele>
                <time>2012-09-29T01:49:05.691+02:00</time>
            </trkpt>
            <trkpt lon="18.99666556" lat="45.36703278">
                <ele>83</ele>
                <time>2012-09-29T01:52:07.691+02:00</time>
            </trkpt>
            <trkpt lon="18.99820723" lat="45.36632139">
                <ele>85</ele>
                <time>2012-09-29T01:52:50.691+02:00</time>
            </trkpt>
            <trkpt lon="19.00266778" lat="45.36433612">
                <ele>81</ele>
                <time>2012-09-29T01:54:53.691+02:00</time>
            </trkpt>
            <trkpt lon="19.01781001" lat="45.35742528">
                <ele>80</ele>
                <time>2012-09-29T02:01:54.691+02:00</time>
            </trkpt>
            <trkpt lon="19.02888778" lat="45.35255251">
                <ele>79</ele>
                <time>2012-09-29T02:07:01.691+02:00</time>
            </trkpt>
            <trkpt lon="19.03043751" lat="45.35196973">
                <ele>81</ele>
                <time>2012-09-29T02:07:43.691+02:00</time>
            </trkpt>
            <trkpt lon="19.04485306" lat="45.35052917">
                <ele>81</ele>
                <time>2012-09-29T02:14:05.691+02:00</time>
            </trkpt>
            <trkpt lon="19.05773556" lat="45.34915473">
                <ele>79</ele>
                <time>2012-09-29T02:19:47.691+02:00</time>
            </trkpt>
            <trkpt lon="19.06621195" lat="45.34826695">
                <ele>77</ele>
                <time>2012-09-29T02:23:32.691+02:00</time>
            </trkpt>
            <trkpt lon="19.07245973" lat="45.34668000">
                <ele>79</ele>
                <time>2012-09-29T02:26:20.691+02:00</time>
            </trkpt>
            <trkpt lon="19.08381112" lat="45.34307695">
                <ele>76</ele>
                <time>2012-09-29T02:31:28.691+02:00</time>
            </trkpt>
            <trkpt lon="19.09154862" lat="45.34039306">
                <ele>78</ele>
                <time>2012-09-29T02:34:59.691+02:00</time>
            </trkpt>
            <trkpt lon="19.09426806" lat="45.33860945">
                <ele>80</ele>
                <time>2012-09-29T02:36:18.691+02:00</time>
            </trkpt>
            <trkpt lon="19.09922223" lat="45.33362750">
                <ele>82</ele>
                <time>2012-09-29T02:38:59.691+02:00</time>
            </trkpt>
            <trkpt lon="19.10475556" lat="45.32720139">
                <ele>78</ele>
                <time>2012-09-29T02:42:08.691+02:00</time>
            </trkpt>
            <trkpt lon="19.10694417" lat="45.32536167">
                <ele>78</ele>
                <time>2012-09-29T02:43:15.691+02:00</time>
            </trkpt>
            <trkpt lon="19.10809862" lat="45.32463084">
                <ele>81</ele>
                <time>2012-09-29T02:43:49.691+02:00</time>
            </trkpt>
            <trkpt lon="19.11407389" lat="45.32285362">
                <ele>81</ele>
                <time>2012-09-29T02:46:30.691+02:00</time>
            </trkpt>
            <trkpt lon="19.12126584" lat="45.32066223">
                <ele>79</ele>
                <time>2012-09-29T02:49:44.691+02:00</time>
            </trkpt>
            <trkpt lon="19.12126584" lat="45.32066223">
                <ele>79</ele>
                <time>2012-09-29T02:49:44.691+02:00</time>
            </trkpt>
            <trkpt lon="19.12079862" lat="45.31850973">
                <ele>77</ele>
                <time>2012-09-29T02:50:25.691+02:00</time>
            </trkpt>
            <trkpt lon="19.12102723" lat="45.31762250">
                <ele>78</ele>
                <time>2012-09-29T02:50:42.691+02:00</time>
            </trkpt>
            <trkpt lon="19.12188028" lat="45.31594834">
                <ele>81</ele>
                <time>2012-09-29T02:51:21.691+02:00</time>
            </trkpt>
            <trkpt lon="19.12436306" lat="45.31322223">
                <ele>77</ele>
                <time>2012-09-29T02:52:44.691+02:00</time>
            </trkpt>
            <trkpt lon="19.12823889" lat="45.31056612">
                <ele>77</ele>
                <time>2012-09-29T02:54:38.691+02:00</time>
            </trkpt>
            <trkpt lon="19.13021751" lat="45.30698750">
                <ele>78</ele>
                <time>2012-09-29T02:56:03.691+02:00</time>
            </trkpt>
            <trkpt lon="19.13066362" lat="45.30554139">
                <ele>77</ele>
                <time>2012-09-29T02:56:32.691+02:00</time>
            </trkpt>
            <trkpt lon="19.13323028" lat="45.30225362">
                <ele>78</ele>
                <time>2012-09-29T02:58:03.691+02:00</time>
            </trkpt>
            <trkpt lon="19.13464778" lat="45.29955695">
                <ele>79</ele>
                <time>2012-09-29T02:59:05.691+02:00</time>
            </trkpt>
            <trkpt lon="19.13479417" lat="45.29712084">
                <ele>78</ele>
                <time>2012-09-29T02:59:50.691+02:00</time>
            </trkpt>
            <trkpt lon="19.13549528" lat="45.29601917">
                <ele>79</ele>
                <time>2012-09-29T03:00:17.691+02:00</time>
            </trkpt>
            <trkpt lon="19.13485306" lat="45.29584195">
                <ele>79</ele>
                <time>2012-09-29T03:00:34.691+02:00</time>
            </trkpt>
            <trkpt lon="19.13504251" lat="45.29423723">
                <ele>81</ele>
                <time>2012-09-29T03:01:04.691+02:00</time>
            </trkpt>
            <trkpt lon="19.13519695" lat="45.29390639">
                <ele>80</ele>
                <time>2012-09-29T03:01:11.691+02:00</time>
            </trkpt>
            <trkpt lon="19.13505278" lat="45.29414501">
                <ele>80</ele>
                <time>2012-09-29T03:01:16.691+02:00</time>
            </trkpt>
            <trkpt lon="19.13572639" lat="45.29300945">
                <ele>80</ele>
                <time>2012-09-29T03:01:43.691+02:00</time>
            </trkpt>
            <trkpt lon="19.13698917" lat="45.29163723">
                <ele>81</ele>
                <time>2012-09-29T03:02:25.691+02:00</time>
            </trkpt>
            <trkpt lon="19.13593751" lat="45.29062139">
                <ele>78</ele>
                <time>2012-09-29T03:02:58.691+02:00</time>
            </trkpt>
            <trkpt lon="19.13730834" lat="45.28933056">
                <ele>78</ele>
                <time>2012-09-29T03:03:41.691+02:00</time>
            </trkpt>
            <trkpt lon="19.13817389" lat="45.28834000">
                <ele>79</ele>
                <time>2012-09-29T03:04:10.691+02:00</time>
            </trkpt>
            <trkpt lon="19.14046945" lat="45.28676639">
                <ele>78</ele>
                <time>2012-09-29T03:05:17.691+02:00</time>
            </trkpt>
            <trkpt lon="19.14414195" lat="45.28464001">
                <ele>80</ele>
                <time>2012-09-29T03:07:02.691+02:00</time>
            </trkpt>
            <trkpt lon="19.14414195" lat="45.28464001">
                <ele>80</ele>
                <time>2012-09-29T03:07:02.691+02:00</time>
            </trkpt>
            <trkpt lon="19.14630223" lat="45.28364167">
                <ele>80</ele>
                <time>2012-09-29T03:08:35.691+02:00</time>
            </trkpt>
            <trkpt lon="19.15045251" lat="45.28248167">
                <ele>79</ele>
                <time>2012-09-29T03:11:29.691+02:00</time>
            </trkpt>
            <trkpt lon="19.15635639" lat="45.28096889">
                <ele>81</ele>
                <time>2012-09-29T03:15:37.691+02:00</time>
            </trkpt>
            <trkpt lon="19.16637028" lat="45.27868862">
                <ele>84</ele>
                <time>2012-09-29T03:22:36.691+02:00</time>
            </trkpt>
            <trkpt lon="19.16996806" lat="45.27781306">
                <ele>85</ele>
                <time>2012-09-29T03:25:06.691+02:00</time>
            </trkpt>
            <trkpt lon="19.17560862" lat="45.27518723">
                <ele>83</ele>
                <time>2012-09-29T03:29:10.691+02:00</time>
            </trkpt>
            <trkpt lon="19.17835528" lat="45.27395917">
                <ele>83</ele>
                <time>2012-09-29T03:31:08.691+02:00</time>
            </trkpt>
            <trkpt lon="19.18174417" lat="45.27237334">
                <ele>80</ele>
                <time>2012-09-29T03:33:35.691+02:00</time>
            </trkpt>
            <trkpt lon="19.18733417" lat="45.27094834">
                <ele>81</ele>
                <time>2012-09-29T03:37:29.691+02:00</time>
            </trkpt>
            <trkpt lon="19.18896945" lat="45.27207056">
                <ele>78</ele>
                <time>2012-09-29T03:38:43.691+02:00</time>
            </trkpt>
            <trkpt lon="19.19140334" lat="45.27633389">
                <ele>76</ele>
                <time>2012-09-29T03:41:22.691+02:00</time>
            </trkpt>
            <trkpt lon="19.19402417" lat="45.28058889">
                <ele>78</ele>
                <time>2012-09-29T03:44:06.691+02:00</time>
            </trkpt>
            <trkpt lon="19.19558806" lat="45.28293806">
                <ele>77</ele>
                <time>2012-09-29T03:45:39.691+02:00</time>
            </trkpt>
            <trkpt lon="19.19582445" lat="45.28311251">
                <ele>77</ele>
                <time>2012-09-29T03:45:46.691+02:00</time>
            </trkpt>
            <trkpt lon="19.19945862" lat="45.28259056">
                <ele>77</ele>
                <time>2012-09-29T03:47:22.691+02:00</time>
            </trkpt>
            <trkpt lon="19.20252417" lat="45.28331306">
                <ele>77</ele>
                <time>2012-09-29T03:48:44.691+02:00</time>
            </trkpt>
            <trkpt lon="19.20863334" lat="45.28357056">
                <ele>78</ele>
                <time>2012-09-29T03:51:26.691+02:00</time>
            </trkpt>
            <trkpt lon="19.21088639" lat="45.28369945">
                <ele>75</ele>
                <time>2012-09-29T03:52:25.691+02:00</time>
            </trkpt>
            <trkpt lon="19.21442667" lat="45.28400278">
                <ele>77</ele>
                <time>2012-09-29T03:53:59.691+02:00</time>
            </trkpt>
            <trkpt lon="19.22021445" lat="45.28460556">
                <ele>78</ele>
                <time>2012-09-29T03:56:33.691+02:00</time>
            </trkpt>
            <trkpt lon="19.22482306" lat="45.28471556">
                <ele>78</ele>
                <time>2012-09-29T03:58:35.691+02:00</time>
            </trkpt>
            <trkpt lon="19.22865500" lat="45.28550556">
                <ele>79</ele>
                <time>2012-09-29T04:00:17.691+02:00</time>
            </trkpt>
            <trkpt lon="19.23192250" lat="45.28547084">
                <ele>77</ele>
                <time>2012-09-29T04:01:43.691+02:00</time>
            </trkpt>
            <trkpt lon="19.23732695" lat="45.28675000">
                <ele>79</ele>
                <time>2012-09-29T04:04:08.691+02:00</time>
            </trkpt>
            <trkpt lon="19.23950639" lat="45.28669806">
                <ele>77</ele>
                <time>2012-09-29T04:05:05.691+02:00</time>
            </trkpt>
            <trkpt lon="19.24496889" lat="45.28609917">
                <ele>76</ele>
                <time>2012-09-29T04:07:30.691+02:00</time>
            </trkpt>
            <trkpt lon="19.24714556" lat="45.28613251">
                <ele>77</ele>
                <time>2012-09-29T04:08:27.691+02:00</time>
            </trkpt>
            <trkpt lon="19.25557389" lat="45.28876667">
                <ele>78</ele>
                <time>2012-09-29T04:12:15.691+02:00</time>
            </trkpt>
            <trkpt lon="19.26019306" lat="45.29068750">
                <ele>77</ele>
                <time>2012-09-29T04:14:22.691+02:00</time>
            </trkpt>
            <trkpt lon="19.26186000" lat="45.29156695">
                <ele>78</ele>
                <time>2012-09-29T04:15:09.691+02:00</time>
            </trkpt>
            <trkpt lon="19.26186000" lat="45.29156695">
                <ele>78</ele>
                <time>2012-09-29T04:15:09.691+02:00</time>
            </trkpt>
            <trkpt lon="19.26189584" lat="45.29256223">
                <ele>80</ele>
                <time>2012-09-29T04:15:28.691+02:00</time>
            </trkpt>
            <trkpt lon="19.26504195" lat="45.29719834">
                <ele>80</ele>
                <time>2012-09-29T04:17:28.691+02:00</time>
            </trkpt>
            <trkpt lon="19.26390028" lat="45.29918834">
                <ele>83</ele>
                <time>2012-09-29T04:18:16.691+02:00</time>
            </trkpt>
            <trkpt lon="19.26354223" lat="45.29981251">
                <ele>83</ele>
                <time>2012-09-29T04:18:31.691+02:00</time>
            </trkpt>
            <trkpt lon="19.26354223" lat="45.29981251">
                <ele>83</ele>
                <time>2012-09-29T04:18:31.691+02:00</time>
            </trkpt>
            <trkpt lon="19.26802917" lat="45.30121584">
                <ele>83</ele>
                <time>2012-09-29T04:20:32.691+02:00</time>
            </trkpt>
            <trkpt lon="19.26939001" lat="45.30164167">
                <ele>82</ele>
                <time>2012-09-29T04:21:08.691+02:00</time>
            </trkpt>
            <trkpt lon="19.27445556" lat="45.29971417">
                <ele>83</ele>
                <time>2012-09-29T04:23:27.691+02:00</time>
            </trkpt>
            <trkpt lon="19.27612112" lat="45.29900112">
                <ele>82</ele>
                <time>2012-09-29T04:24:13.691+02:00</time>
            </trkpt>
            <trkpt lon="19.28071528" lat="45.30028334">
                <ele>81</ele>
                <time>2012-09-29T04:26:17.691+02:00</time>
            </trkpt>
            <trkpt lon="19.28426251" lat="45.30160251">
                <ele>82</ele>
                <time>2012-09-29T04:27:54.691+02:00</time>
            </trkpt>
            <trkpt lon="19.28957667" lat="45.30022112">
                <ele>81</ele>
                <time>2012-09-29T04:30:17.691+02:00</time>
            </trkpt>
            <trkpt lon="19.29908945" lat="45.29682473">
                <ele>80</ele>
                <time>2012-09-29T04:34:36.691+02:00</time>
            </trkpt>
            <trkpt lon="19.30458667" lat="45.29415334">
                <ele>84</ele>
                <time>2012-09-29T04:37:10.691+02:00</time>
            </trkpt>
            <trkpt lon="19.30320278" lat="45.29214973">
                <ele>84</ele>
                <time>2012-09-29T04:38:02.691+02:00</time>
            </trkpt>
            <trkpt lon="19.30006973" lat="45.28796195">
                <ele>80</ele>
                <time>2012-09-29T04:39:55.691+02:00</time>
            </trkpt>
            <trkpt lon="19.30006973" lat="45.28796195">
                <ele>80</ele>
                <time>2012-09-29T04:39:55.691+02:00</time>
            </trkpt>
            <trkpt lon="19.29110945" lat="45.27517778">
                <ele>76</ele>
                <time>2012-09-29T04:45:31.691+02:00</time>
            </trkpt>
            <trkpt lon="19.28650584" lat="45.26930750">
                <ele>78</ele>
                <time>2012-09-29T04:48:15.691+02:00</time>
            </trkpt>
            <trkpt lon="19.29394806" lat="45.26651584">
                <ele>77</ele>
                <time>2012-09-29T04:51:38.691+02:00</time>
            </trkpt>
            <trkpt lon="19.29881750" lat="45.26469223">
                <ele>77</ele>
                <time>2012-09-29T04:53:51.691+02:00</time>
            </trkpt>
            <trkpt lon="19.29391500" lat="45.25633945">
                <ele>74</ele>
                <time>2012-09-29T04:57:13.691+02:00</time>
            </trkpt>
            <trkpt lon="19.28718917" lat="45.24658750">
                <ele>74</ele>
                <time>2012-09-29T05:01:27.691+02:00</time>
            </trkpt>
            <trkpt lon="19.28586639" lat="45.24092445">
                <ele>77</ele>
                <time>2012-09-29T05:03:19.691+02:00</time>
            </trkpt>
            <trkpt lon="19.28581917" lat="45.24069556">
                <ele>78</ele>
                <time>2012-09-29T05:03:26.691+02:00</time>
            </trkpt>
            <trkpt lon="19.29025723" lat="45.24055084">
                <ele>79</ele>
                <time>2012-09-29T05:06:29.691+02:00</time>
            </trkpt>
            <trkpt lon="19.29483084" lat="45.23988084">
                <ele>81</ele>
                <time>2012-09-29T05:09:39.691+02:00</time>
            </trkpt>
            <trkpt lon="19.30281473" lat="45.23999973">
                <ele>79</ele>
                <time>2012-09-29T05:15:08.691+02:00</time>
            </trkpt>
            <trkpt lon="19.30832862" lat="45.24034528">
                <ele>79</ele>
                <time>2012-09-29T05:18:55.691+02:00</time>
            </trkpt>
            <trkpt lon="19.31445334" lat="45.24022501">
                <ele>75</ele>
                <time>2012-09-29T05:23:07.691+02:00</time>
            </trkpt>
            <trkpt lon="19.31445334" lat="45.24022501">
                <ele>75</ele>
                <time>2012-09-29T05:23:07.691+02:00</time>
            </trkpt>
            <trkpt lon="19.31972612" lat="45.24114639">
                <ele>77</ele>
                <time>2012-09-29T05:26:46.691+02:00</time>
            </trkpt>
            <trkpt lon="19.32367084" lat="45.24173417">
                <ele>83</ele>
                <time>2012-09-29T05:29:31.691+02:00</time>
            </trkpt>
            <trkpt lon="19.32554834" lat="45.24371056">
                <ele>76</ele>
                <time>2012-09-29T05:31:07.691+02:00</time>
            </trkpt>
            <trkpt lon="19.32636889" lat="45.24437056">
                <ele>73</ele>
                <time>2012-09-29T05:31:45.691+02:00</time>
            </trkpt>
            <trkpt lon="19.32686667" lat="45.24457389">
                <ele>78</ele>
                <time>2012-09-29T05:32:08.691+02:00</time>
            </trkpt>
            <trkpt lon="19.32812028" lat="45.24765112">
                <ele>75</ele>
                <time>2012-09-29T05:33:51.691+02:00</time>
            </trkpt>
            <trkpt lon="19.32901612" lat="45.24875501">
                <ele>77</ele>
                <time>2012-09-29T05:34:40.691+02:00</time>
            </trkpt>
            <trkpt lon="19.32901612" lat="45.24875501">
                <ele>77</ele>
                <time>2012-09-29T05:34:40.691+02:00</time>
            </trkpt>
            <trkpt lon="19.32988028" lat="45.24873167">
                <ele>78</ele>
                <time>2012-09-29T05:35:03.691+02:00</time>
            </trkpt>
            <trkpt lon="19.33459528" lat="45.24579445">
                <ele>79</ele>
                <time>2012-09-29T05:37:19.691+02:00</time>
            </trkpt>
            <trkpt lon="19.33686306" lat="45.24482528">
                <ele>79</ele>
                <time>2012-09-29T05:38:21.691+02:00</time>
            </trkpt>
            <trkpt lon="19.34270667" lat="45.24411917">
                <ele>76</ele>
                <time>2012-09-29T05:40:56.691+02:00</time>
            </trkpt>
            <trkpt lon="19.35154584" lat="45.24308695">
                <ele>78</ele>
                <time>2012-09-29T05:44:51.691+02:00</time>
            </trkpt>
            <trkpt lon="19.35922584" lat="45.24340862">
                <ele>78</ele>
                <time>2012-09-29T05:48:14.691+02:00</time>
            </trkpt>
            <trkpt lon="19.36010778" lat="45.24321973">
                <ele>78</ele>
                <time>2012-09-29T05:48:37.691+02:00</time>
            </trkpt>
            <trkpt lon="19.36125584" lat="45.24291028">
                <ele>77</ele>
                <time>2012-09-29T05:49:07.691+02:00</time>
            </trkpt>
            <trkpt lon="19.36348973" lat="45.24113723">
                <ele>77</ele>
                <time>2012-09-29T05:50:14.691+02:00</time>
            </trkpt>
            <trkpt lon="19.36457056" lat="45.24042195">
                <ele>77</ele>
                <time>2012-09-29T05:50:45.691+02:00</time>
            </trkpt>
            <trkpt lon="19.36611723" lat="45.23947528">
                <ele>76</ele>
                <time>2012-09-29T05:51:29.691+02:00</time>
            </trkpt>
            <trkpt lon="19.36828528" lat="45.23898445">
                <ele>76</ele>
                <time>2012-09-29T05:52:27.691+02:00</time>
            </trkpt>
            <trkpt lon="19.37105389" lat="45.23893556">
                <ele>77</ele>
                <time>2012-09-29T05:53:40.691+02:00</time>
            </trkpt>
            <trkpt lon="19.37477056" lat="45.23898834">
                <ele>81</ele>
                <time>2012-09-29T05:55:19.691+02:00</time>
            </trkpt>
            <trkpt lon="19.38298028" lat="45.23909723">
                <ele>77</ele>
                <time>2012-09-29T05:58:56.691+02:00</time>
            </trkpt>
            <trkpt lon="19.38303389" lat="45.23911334">
                <ele>77</ele>
                <time>2012-09-29T05:58:57.691+02:00</time>
            </trkpt>
            <trkpt lon="19.38404751" lat="45.23771528">
                <ele>73</ele>
                <time>2012-09-29T05:59:34.691+02:00</time>
            </trkpt>
            <trkpt lon="19.38548695" lat="45.23604251">
                <ele>76</ele>
                <time>2012-09-29T06:00:24.691+02:00</time>
            </trkpt>
            <trkpt lon="19.38686112" lat="45.23541001">
                <ele>82</ele>
                <time>2012-09-29T06:01:03.691+02:00</time>
            </trkpt>
            <trkpt lon="19.38853056" lat="45.23528917">
                <ele>81</ele>
                <time>2012-09-29T06:01:47.691+02:00</time>
            </trkpt>
            <trkpt lon="19.39305695" lat="45.23574056">
                <ele>79</ele>
                <time>2012-09-29T06:03:47.691+02:00</time>
            </trkpt>
            <trkpt lon="19.39775056" lat="45.23625278">
                <ele>80</ele>
                <time>2012-09-29T06:05:51.691+02:00</time>
            </trkpt>
            <trkpt lon="19.40164139" lat="45.23640417">
                <ele>76</ele>
                <time>2012-09-29T06:07:34.691+02:00</time>
            </trkpt>
            <trkpt lon="19.40164139" lat="45.23640417">
                <ele>76</ele>
                <time>2012-09-29T06:07:34.691+02:00</time>
            </trkpt>
            <trkpt lon="19.40215306" lat="45.23644917">
                <ele>74</ele>
                <time>2012-09-29T06:07:47.691+02:00</time>
            </trkpt>
            <trkpt lon="19.40230445" lat="45.23649195">
                <ele>74</ele>
                <time>2012-09-29T06:07:51.691+02:00</time>
            </trkpt>
            <trkpt lon="19.40230445" lat="45.23649195">
                <ele>74</ele>
                <time>2012-09-29T06:07:51.691+02:00</time>
            </trkpt>
            <trkpt lon="19.40242556" lat="45.23652250">
                <ele>74</ele>
                <time>2012-09-29T06:07:54.691+02:00</time>
            </trkpt>
            <trkpt lon="19.40270000" lat="45.23664862">
                <ele>76</ele>
                <time>2012-09-29T06:08:02.691+02:00</time>
            </trkpt>
            <trkpt lon="19.40261584" lat="45.23770084">
                <ele>80</ele>
                <time>2012-09-29T06:08:22.691+02:00</time>
            </trkpt>
            <trkpt lon="19.40488667" lat="45.24003306">
                <ele>74</ele>
                <time>2012-09-29T06:09:36.691+02:00</time>
            </trkpt>
            <trkpt lon="19.40649751" lat="45.24078806">
                <ele>76</ele>
                <time>2012-09-29T06:10:21.691+02:00</time>
            </trkpt>
            <trkpt lon="19.40781889" lat="45.24123001">
                <ele>82</ele>
                <time>2012-09-29T06:10:58.691+02:00</time>
            </trkpt>
            <trkpt lon="19.41102584" lat="45.24089056">
                <ele>79</ele>
                <time>2012-09-29T06:12:23.691+02:00</time>
            </trkpt>
            <trkpt lon="19.41138556" lat="45.24030112">
                <ele>80</ele>
                <time>2012-09-29T06:12:37.691+02:00</time>
            </trkpt>
            <trkpt lon="19.41996112" lat="45.23962834">
                <ele>79</ele>
                <time>2012-09-29T06:16:24.691+02:00</time>
            </trkpt>
            <trkpt lon="19.42285612" lat="45.23999917">
                <ele>79</ele>
                <time>2012-09-29T06:17:41.691+02:00</time>
            </trkpt>
            <trkpt lon="19.42348306" lat="45.24094251">
                <ele>77</ele>
                <time>2012-09-29T06:18:05.691+02:00</time>
            </trkpt>
            <trkpt lon="19.42340445" lat="45.24378945">
                <ele>76</ele>
                <time>2012-09-29T06:18:58.691+02:00</time>
            </trkpt>
            <trkpt lon="19.42453917" lat="45.24865695">
                <ele>76</ele>
                <time>2012-09-29T06:20:33.691+02:00</time>
            </trkpt>
            <trkpt lon="19.42453917" lat="45.24865695">
                <ele>76</ele>
                <time>2012-09-29T06:20:33.691+02:00</time>
            </trkpt>
            <trkpt lon="19.43517584" lat="45.24755667">
                <ele>75</ele>
                <time>2012-09-29T06:25:15.691+02:00</time>
            </trkpt>
            <trkpt lon="19.44220834" lat="45.24684250">
                <ele>77</ele>
                <time>2012-09-29T06:28:22.691+02:00</time>
            </trkpt>
            <trkpt lon="19.44605028" lat="45.24760806">
                <ele>77</ele>
                <time>2012-09-29T06:30:04.691+02:00</time>
            </trkpt>
            <trkpt lon="19.45037334" lat="45.24858862">
                <ele>80</ele>
                <time>2012-09-29T06:32:00.691+02:00</time>
            </trkpt>
            <trkpt lon="19.46270612" lat="45.25062500">
                <ele>78</ele>
                <time>2012-09-29T06:37:29.691+02:00</time>
            </trkpt>
            <trkpt lon="19.47033695" lat="45.25141306">
                <ele>79</ele>
                <time>2012-09-29T06:40:51.691+02:00</time>
            </trkpt>
            <trkpt lon="19.47614667" lat="45.25280001">
                <ele>79</ele>
                <time>2012-09-29T06:43:27.691+02:00</time>
            </trkpt>
            <trkpt lon="19.48014556" lat="45.25375917">
                <ele>82</ele>
                <time>2012-09-29T06:45:15.691+02:00</time>
            </trkpt>
            <trkpt lon="19.48025334" lat="45.25357862">
                <ele>82</ele>
                <time>2012-09-29T06:45:19.691+02:00</time>
            </trkpt>
            <trkpt lon="19.48942584" lat="45.25401667">
                <ele>84</ele>
                <time>2012-09-29T06:49:22.691+02:00</time>
            </trkpt>
            <trkpt lon="19.49397778" lat="45.25513501">
                <ele>81</ele>
                <time>2012-09-29T06:51:24.691+02:00</time>
            </trkpt>
            <trkpt lon="19.49920917" lat="45.25623278">
                <ele>76</ele>
                <time>2012-09-29T06:53:44.691+02:00</time>
            </trkpt>
            <trkpt lon="19.50643917" lat="45.25868417">
                <ele>77</ele>
                <time>2012-09-29T06:57:01.691+02:00</time>
            </trkpt>
            <trkpt lon="19.51001889" lat="45.26066112">
                <ele>78</ele>
                <time>2012-09-29T06:58:43.691+02:00</time>
            </trkpt>
            <trkpt lon="19.51330778" lat="45.26179000">
                <ele>79</ele>
                <time>2012-09-29T07:00:12.691+02:00</time>
            </trkpt>
            <trkpt lon="19.51869806" lat="45.26252195">
                <ele>78</ele>
                <time>2012-09-29T07:02:35.691+02:00</time>
            </trkpt>
            <trkpt lon="19.52531028" lat="45.26400362">
                <ele>75</ele>
                <time>2012-09-29T07:05:32.691+02:00</time>
            </trkpt>
            <trkpt lon="19.52795084" lat="45.26518084">
                <ele>77</ele>
                <time>2012-09-29T07:06:45.691+02:00</time>
            </trkpt>
            <trkpt lon="19.53208334" lat="45.26814917">
                <ele>78</ele>
                <time>2012-09-29T07:08:47.691+02:00</time>
            </trkpt>
            <trkpt lon="19.53173167" lat="45.26779139">
                <ele>78</ele>
                <time>2012-09-29T07:08:58.691+02:00</time>
            </trkpt>
            <trkpt lon="19.53293778" lat="45.26659639">
                <ele>73</ele>
                <time>2012-09-29T07:09:36.691+02:00</time>
            </trkpt>
            <trkpt lon="19.53397223" lat="45.26531667">
                <ele>72</ele>
                <time>2012-09-29T07:10:12.691+02:00</time>
            </trkpt>
            <trkpt lon="19.53182139" lat="45.25893306">
                <ele>73</ele>
                <time>2012-09-29T07:12:24.691+02:00</time>
            </trkpt>
            <trkpt lon="19.53127612" lat="45.25665056">
                <ele>82</ele>
                <time>2012-09-29T07:13:11.691+02:00</time>
            </trkpt>
            <trkpt lon="19.53127612" lat="45.25665056">
                <ele>82</ele>
                <time>2012-09-29T07:13:11.691+02:00</time>
            </trkpt>
            <trkpt lon="19.53604556" lat="45.25656889">
                <ele>73</ele>
                <time>2012-09-29T07:16:27.691+02:00</time>
            </trkpt>
            <trkpt lon="19.54494251" lat="45.25529806">
                <ele>75</ele>
                <time>2012-09-29T07:22:36.691+02:00</time>
            </trkpt>
            <trkpt lon="19.54694806" lat="45.25449306">
                <ele>73</ele>
                <time>2012-09-29T07:24:01.691+02:00</time>
            </trkpt>
            <trkpt lon="19.55197500" lat="45.25223473">
                <ele>75</ele>
                <time>2012-09-29T07:27:39.691+02:00</time>
            </trkpt>
            <trkpt lon="19.55348001" lat="45.25037112">
                <ele>77</ele>
                <time>2012-09-29T07:29:02.691+02:00</time>
            </trkpt>
            <trkpt lon="19.55786584" lat="45.24498417">
                <ele>79</ele>
                <time>2012-09-29T07:33:01.691+02:00</time>
            </trkpt>
            <trkpt lon="19.56032389" lat="45.24199167">
                <ele>75</ele>
                <time>2012-09-29T07:35:14.691+02:00</time>
            </trkpt>
            <trkpt lon="19.56397806" lat="45.23822889">
                <ele>78</ele>
                <time>2012-09-29T07:38:21.691+02:00</time>
            </trkpt>
            <trkpt lon="19.56554473" lat="45.23690917">
                <ele>78</ele>
                <time>2012-09-29T07:39:36.691+02:00</time>
            </trkpt>
            <trkpt lon="19.56883195" lat="45.23399612">
                <ele>82</ele>
                <time>2012-09-29T07:42:17.691+02:00</time>
            </trkpt>
            <trkpt lon="19.57055445" lat="45.23201973">
                <ele>81</ele>
                <time>2012-09-29T07:43:48.691+02:00</time>
            </trkpt>
            <trkpt lon="19.57339528" lat="45.22794084">
                <ele>74</ele>
                <time>2012-09-29T07:46:34.691+02:00</time>
            </trkpt>
            <trkpt lon="19.57854723" lat="45.22562000">
                <ele>76</ele>
                <time>2012-09-29T07:50:17.691+02:00</time>
            </trkpt>
            <trkpt lon="19.58244167" lat="45.22398362">
                <ele>75</ele>
                <time>2012-09-29T07:53:04.691+02:00</time>
            </trkpt>
            <trkpt lon="19.58521584" lat="45.22411473">
                <ele>76</ele>
                <time>2012-09-29T07:54:58.691+02:00</time>
            </trkpt>
            <trkpt lon="19.59213278" lat="45.22512862">
                <ele>73</ele>
                <time>2012-09-29T07:59:44.691+02:00</time>
            </trkpt>
            <trkpt lon="19.59672862" lat="45.22562473">
                <ele>77</ele>
                <time>2012-09-29T08:02:55.691+02:00</time>
            </trkpt>
            <trkpt lon="19.59930834" lat="45.22666389">
                <ele>76</ele>
                <time>2012-09-29T08:04:45.691+02:00</time>
            </trkpt>
            <trkpt lon="19.60167028" lat="45.22789112">
                <ele>74</ele>
                <time>2012-09-29T08:06:28.691+02:00</time>
            </trkpt>
            <trkpt lon="19.60359750" lat="45.22835639">
                <ele>76</ele>
                <time>2012-09-29T08:07:49.691+02:00</time>
            </trkpt>
            <trkpt lon="19.60538139" lat="45.22841639">
                <ele>75</ele>
                <time>2012-09-29T08:09:02.691+02:00</time>
            </trkpt>
            <trkpt lon="19.60571806" lat="45.22708584">
                <ele>73</ele>
                <time>2012-09-29T08:09:43.691+02:00</time>
            </trkpt>
            <trkpt lon="19.60508362" lat="45.22504084">
                <ele>77</ele>
                <time>2012-09-29T08:10:49.691+02:00</time>
            </trkpt>
            <trkpt lon="19.60492278" lat="45.22530473">
                <ele>78</ele>
                <time>2012-09-29T08:10:55.691+02:00</time>
            </trkpt>
            <trkpt lon="19.60538334" lat="45.22439778">
                <ele>78</ele>
                <time>2012-09-29T08:11:15.691+02:00</time>
            </trkpt>
            <trkpt lon="19.60953917" lat="45.22450862">
                <ele>80</ele>
                <time>2012-09-29T08:13:05.691+02:00</time>
            </trkpt>
            <trkpt lon="19.61321417" lat="45.22373195">
                <ele>76</ele>
                <time>2012-09-29T08:14:43.691+02:00</time>
            </trkpt>
            <trkpt lon="19.61326195" lat="45.22387806">
                <ele>76</ele>
                <time>2012-09-29T08:14:46.691+02:00</time>
            </trkpt>
            <trkpt lon="19.61445112" lat="45.22382167">
                <ele>76</ele>
                <time>2012-09-29T08:15:17.691+02:00</time>
            </trkpt>
            <trkpt lon="19.61553084" lat="45.22385445">
                <ele>75</ele>
                <time>2012-09-29T08:15:45.691+02:00</time>
            </trkpt>
            <trkpt lon="19.61751751" lat="45.22428056">
                <ele>78</ele>
                <time>2012-09-29T08:16:38.691+02:00</time>
            </trkpt>
            <trkpt lon="19.62314473" lat="45.22571501">
                <ele>77</ele>
                <time>2012-09-29T08:19:09.691+02:00</time>
            </trkpt>
            <trkpt lon="19.62314473" lat="45.22571501">
                <ele>77</ele>
                <time>2012-09-29T08:19:09.691+02:00</time>
            </trkpt>
            <trkpt lon="19.62252278" lat="45.22907251">
                <ele>75</ele>
                <time>2012-09-29T08:20:13.691+02:00</time>
            </trkpt>
            <trkpt lon="19.62187278" lat="45.23072945">
                <ele>76</ele>
                <time>2012-09-29T08:20:48.691+02:00</time>
            </trkpt>
            <trkpt lon="19.62486667" lat="45.23164556">
                <ele>76</ele>
                <time>2012-09-29T08:22:09.691+02:00</time>
            </trkpt>
            <trkpt lon="19.62943806" lat="45.23233889">
                <ele>77</ele>
                <time>2012-09-29T08:24:11.691+02:00</time>
            </trkpt>
            <trkpt lon="19.62943806" lat="45.23233889">
                <ele>77</ele>
                <time>2012-09-29T08:24:11.691+02:00</time>
            </trkpt>
            <trkpt lon="19.63447139" lat="45.23299612">
                <ele>78</ele>
                <time>2012-09-29T08:27:39.691+02:00</time>
            </trkpt>
            <trkpt lon="19.63628445" lat="45.23329445">
                <ele>76</ele>
                <time>2012-09-29T08:28:54.691+02:00</time>
            </trkpt>
            <trkpt lon="19.63804528" lat="45.23471778">
                <ele>77</ele>
                <time>2012-09-29T08:30:17.691+02:00</time>
            </trkpt>
            <trkpt lon="19.64410889" lat="45.23788223">
                <ele>75</ele>
                <time>2012-09-29T08:34:43.691+02:00</time>
            </trkpt>
            <trkpt lon="19.65045612" lat="45.23961667">
                <ele>78</ele>
                <time>2012-09-29T08:39:10.691+02:00</time>
            </trkpt>
            <trkpt lon="19.65583556" lat="45.24040334">
                <ele>74</ele>
                <time>2012-09-29T08:42:52.691+02:00</time>
            </trkpt>
            <trkpt lon="19.65961500" lat="45.24042112">
                <ele>78</ele>
                <time>2012-09-29T08:45:29.691+02:00</time>
            </trkpt>
            <trkpt lon="19.66451917" lat="45.24025167">
                <ele>76</ele>
                <time>2012-09-29T08:48:51.691+02:00</time>
            </trkpt>
            <trkpt lon="19.66854556" lat="45.23991028">
                <ele>75</ele>
                <time>2012-09-29T08:51:37.691+02:00</time>
            </trkpt>
            <trkpt lon="19.66820778" lat="45.23971389">
                <ele>76</ele>
                <time>2012-09-29T08:51:52.691+02:00</time>
            </trkpt>
            <trkpt lon="19.67230084" lat="45.23899417">
                <ele>72</ele>
                <time>2012-09-29T08:54:42.691+02:00</time>
            </trkpt>
            <trkpt lon="19.67996556" lat="45.23753195">
                <ele>77</ele>
                <time>2012-09-29T09:00:02.691+02:00</time>
            </trkpt>
            <trkpt lon="19.68795834" lat="45.23534167">
                <ele>67</ele>
                <time>2012-09-29T09:05:37.691+02:00</time>
            </trkpt>
            <trkpt lon="19.68924834" lat="45.23538834">
                <ele>76</ele>
                <time>2012-09-29T09:06:33.691+02:00</time>
            </trkpt>
            <trkpt lon="19.69319945" lat="45.23343751">
                <ele>77</ele>
                <time>2012-09-29T09:09:25.691+02:00</time>
            </trkpt>
            <trkpt lon="19.69309834" lat="45.23336362">
                <ele>77</ele>
                <time>2012-09-29T09:09:28.691+02:00</time>
            </trkpt>
            <trkpt lon="19.69773028" lat="45.23293389">
                <ele>77</ele>
                <time>2012-09-29T09:11:31.691+02:00</time>
            </trkpt>
            <trkpt lon="19.69953973" lat="45.23394056">
                <ele>76</ele>
                <time>2012-09-29T09:12:22.691+02:00</time>
            </trkpt>
            <trkpt lon="19.70205084" lat="45.23462251">
                <ele>75</ele>
                <time>2012-09-29T09:13:29.691+02:00</time>
            </trkpt>
            <trkpt lon="19.70608695" lat="45.23540778">
                <ele>76</ele>
                <time>2012-09-29T09:15:17.691+02:00</time>
            </trkpt>
            <trkpt lon="19.71228945" lat="45.23569223">
                <ele>76</ele>
                <time>2012-09-29T09:18:01.691+02:00</time>
            </trkpt>
            <trkpt lon="19.71193000" lat="45.23565195">
                <ele>76</ele>
                <time>2012-09-29T09:18:10.691+02:00</time>
            </trkpt>
            <trkpt lon="19.71767389" lat="45.23513473">
                <ele>78</ele>
                <time>2012-09-29T09:20:42.691+02:00</time>
            </trkpt>
            <trkpt lon="19.72410334" lat="45.23529362">
                <ele>76</ele>
                <time>2012-09-29T09:23:32.691+02:00</time>
            </trkpt>
            <trkpt lon="19.72861445" lat="45.23528084">
                <ele>78</ele>
                <time>2012-09-29T09:25:32.691+02:00</time>
            </trkpt>
            <trkpt lon="19.73430056" lat="45.23467139">
                <ele>75</ele>
                <time>2012-09-29T09:28:03.691+02:00</time>
            </trkpt>
            <trkpt lon="19.73979112" lat="45.23455000">
                <ele>77</ele>
                <time>2012-09-29T09:30:28.691+02:00</time>
            </trkpt>
            <trkpt lon="19.74192612" lat="45.23424806">
                <ele>77</ele>
                <time>2012-09-29T09:31:24.691+02:00</time>
            </trkpt>
            <trkpt lon="19.75741806" lat="45.23178084">
                <ele>76</ele>
                <time>2012-09-29T09:38:17.691+02:00</time>
            </trkpt>
            <trkpt lon="19.76681501" lat="45.23021139">
                <ele>77</ele>
                <time>2012-09-29T09:42:27.691+02:00</time>
            </trkpt>
            <trkpt lon="19.77053389" lat="45.22974056">
                <ele>79</ele>
                <time>2012-09-29T09:44:06.691+02:00</time>
            </trkpt>
            <trkpt lon="19.77552417" lat="45.22913584">
                <ele>77</ele>
                <time>2012-09-29T09:46:18.691+02:00</time>
            </trkpt>
            <trkpt lon="19.78176306" lat="45.22957723">
                <ele>75</ele>
                <time>2012-09-29T09:49:03.691+02:00</time>
            </trkpt>
            <trkpt lon="19.78432723" lat="45.22967723">
                <ele>73</ele>
                <time>2012-09-29T09:50:10.691+02:00</time>
            </trkpt>
            <trkpt lon="19.78813695" lat="45.22916501">
                <ele>73</ele>
                <time>2012-09-29T09:51:51.691+02:00</time>
            </trkpt>
            <trkpt lon="19.79136223" lat="45.22840806">
                <ele>74</ele>
                <time>2012-09-29T09:53:17.691+02:00</time>
            </trkpt>
            <trkpt lon="19.79427584" lat="45.22828056">
                <ele>74</ele>
                <time>2012-09-29T09:54:34.691+02:00</time>
            </trkpt>
            <trkpt lon="19.79546278" lat="45.22860945">
                <ele>74</ele>
                <time>2012-09-29T09:55:06.691+02:00</time>
            </trkpt>
            <trkpt lon="19.80207806" lat="45.22989195">
                <ele>75</ele>
                <time>2012-09-29T09:58:03.691+02:00</time>
            </trkpt>
            <trkpt lon="19.80700195" lat="45.22999639">
                <ele>73</ele>
                <time>2012-09-29T10:00:13.691+02:00</time>
            </trkpt>
            <trkpt lon="19.80669556" lat="45.22988417">
                <ele>73</ele>
                <time>2012-09-29T10:00:21.691+02:00</time>
            </trkpt>
            <trkpt lon="19.81123751" lat="45.22997834">
                <ele>73</ele>
                <time>2012-09-29T10:02:21.691+02:00</time>
            </trkpt>
            <trkpt lon="19.81366362" lat="45.23020028">
                <ele>75</ele>
                <time>2012-09-29T10:03:25.691+02:00</time>
            </trkpt>
            <trkpt lon="19.81679056" lat="45.23056195">
                <ele>74</ele>
                <time>2012-09-29T10:04:48.691+02:00</time>
            </trkpt>
            <trkpt lon="19.81954084" lat="45.23136528">
                <ele>73</ele>
                <time>2012-09-29T10:06:02.691+02:00</time>
            </trkpt>
            <trkpt lon="19.82231500" lat="45.23237778">
                <ele>73</ele>
                <time>2012-09-29T10:07:17.691+02:00</time>
            </trkpt>
            <trkpt lon="19.82680862" lat="45.23225834">
                <ele>72</ele>
                <time>2012-09-29T10:09:16.691+02:00</time>
            </trkpt>
            <trkpt lon="19.82685584" lat="45.23247723">
                <ele>72</ele>
                <time>2012-09-29T10:09:20.691+02:00</time>
            </trkpt>
            <trkpt lon="19.82594806" lat="45.23467556">
                <ele>75</ele>
                <time>2012-09-29T10:10:08.691+02:00</time>
            </trkpt>
            <trkpt lon="19.82712528" lat="45.23500417">
                <ele>77</ele>
                <time>2012-09-29T10:10:40.691+02:00</time>
            </trkpt>
            <trkpt lon="19.82979334" lat="45.23592806">
                <ele>81</ele>
                <time>2012-09-29T10:11:53.691+02:00</time>
            </trkpt>
            <trkpt lon="19.83356945" lat="45.23681056">
                <ele>78</ele>
                <time>2012-09-29T10:13:34.691+02:00</time>
            </trkpt>
            <trkpt lon="19.83415945" lat="45.23586667">
                <ele>84</ele>
                <time>2012-09-29T10:13:58.691+02:00</time>
            </trkpt>
            <trkpt lon="19.83784251" lat="45.23653778">
                <ele>76</ele>
                <time>2012-09-29T10:15:36.691+02:00</time>
            </trkpt>
            <trkpt lon="19.83904584" lat="45.23697889">
                <ele>87</ele>
                <time>2012-09-29T10:16:11.691+02:00</time>
            </trkpt>
            <trkpt lon="19.83925612" lat="45.23676278">
                <ele>81</ele>
                <time>2012-09-29T10:16:17.691+02:00</time>
            </trkpt>
            <trkpt lon="19.83925612" lat="45.23676278">
                <ele>81</ele>
                <time>2012-09-29T10:16:17.691+02:00</time>
            </trkpt>
            <trkpt lon="19.84403389" lat="45.23829528">
                <ele>77</ele>
                <time>2012-09-29T10:18:26.691+02:00</time>
            </trkpt>
            <trkpt lon="19.84384556" lat="45.23819667">
                <ele>77</ele>
                <time>2012-09-29T10:18:31.691+02:00</time>
            </trkpt>
            <trkpt lon="19.84571584" lat="45.23859362">
                <ele>79</ele>
                <time>2012-09-29T10:19:21.691+02:00</time>
            </trkpt>
            <trkpt lon="19.84515278" lat="45.23832056">
                <ele>76</ele>
                <time>2012-09-29T10:19:36.691+02:00</time>
            </trkpt>
            <trkpt lon="19.84659278" lat="45.23884750">
                <ele>78</ele>
                <time>2012-09-29T10:20:15.691+02:00</time>
            </trkpt>
            <trkpt lon="19.84803778" lat="45.23911834">
                <ele>76</ele>
                <time>2012-09-29T10:20:53.691+02:00</time>
            </trkpt>
            <trkpt lon="19.84825723" lat="45.23787889">
                <ele>82</ele>
                <time>2012-09-29T10:21:18.691+02:00</time>
            </trkpt>
            <trkpt lon="19.84841306" lat="45.23780778">
                <ele>80</ele>
                <time>2012-09-29T10:21:22.691+02:00</time>
            </trkpt>
            <trkpt lon="19.85177334" lat="45.23982278">
                <ele>76</ele>
                <time>2012-09-29T10:22:58.691+02:00</time>
            </trkpt>
            <trkpt lon="19.85368167" lat="45.24146139">
                <ele>75</ele>
                <time>2012-09-29T10:23:57.691+02:00</time>
            </trkpt>
            <trkpt lon="19.85521473" lat="45.24495167">
                <ele>77</ele>
                <time>2012-09-29T10:25:14.691+02:00</time>
            </trkpt>
            <trkpt lon="19.85593278" lat="45.24802639">
                <ele>77</ele>
                <time>2012-09-29T10:26:14.691+02:00</time>
            </trkpt>
            <trkpt lon="19.85609445" lat="45.25136445">
                <ele>76</ele>
                <time>2012-09-29T10:27:16.691+02:00</time>
            </trkpt>
            <trkpt lon="19.85584834" lat="45.25242056">
                <ele>78</ele>
                <time>2012-09-29T10:27:37.691+02:00</time>
            </trkpt>
            <trkpt lon="19.85536667" lat="45.25379362">
                <ele>81</ele>
                <time>2012-09-29T10:28:06.691+02:00</time>
            </trkpt>
            <trkpt lon="19.85471778" lat="45.25407612">
                <ele>83</ele>
                <time>2012-09-29T10:28:24.691+02:00</time>
            </trkpt>
            <trkpt lon="19.86039389" lat="45.25474862">
                <ele>79</ele>
                <time>2012-09-29T10:30:54.691+02:00</time>
            </trkpt>
            <trkpt lon="19.86039389" lat="45.25474862">
                <ele>79</ele>
                <time>2012-09-29T10:30:54.691+02:00</time>
            </trkpt>
            <trkpt lon="19.86432000" lat="45.25478584">
                <ele>82</ele>
                <time>2012-09-29T10:32:38.691+02:00</time>
            </trkpt>
            <trkpt lon="19.86712695" lat="45.25286723">
                <ele>83</ele>
                <time>2012-09-29T10:34:00.691+02:00</time>
            </trkpt>
            <trkpt lon="19.87074056" lat="45.25273084">
                <ele>80</ele>
                <time>2012-09-29T10:35:35.691+02:00</time>
            </trkpt>
            <trkpt lon="19.87228834" lat="45.25221334">
                <ele>79</ele>
                <time>2012-09-29T10:36:17.691+02:00</time>
            </trkpt>
            <trkpt lon="19.87575862" lat="45.24968667">
                <ele>78</ele>
                <time>2012-09-29T10:38:00.691+02:00</time>
            </trkpt>
            <trkpt lon="19.87784528" lat="45.24876167">
                <ele>76</ele>
                <time>2012-09-29T10:38:57.691+02:00</time>
            </trkpt>
            <trkpt lon="19.88217362" lat="45.24290584">
                <ele>81</ele>
                <time>2012-09-29T10:41:36.691+02:00</time>
            </trkpt>
            <trkpt lon="19.88278695" lat="45.24238056">
                <ele>81</ele>
                <time>2012-09-29T10:41:54.691+02:00</time>
            </trkpt>
            <trkpt lon="19.88278695" lat="45.24238056">
                <ele>81</ele>
                <time>2012-09-29T10:41:54.691+02:00</time>
            </trkpt>
            <trkpt lon="19.88469000" lat="45.24082639">
                <ele>84</ele>
                <time>2012-09-29T10:42:52.691+02:00</time>
            </trkpt>
            <trkpt lon="19.88705528" lat="45.23704862">
                <ele>87</ele>
                <time>2012-09-29T10:44:27.691+02:00</time>
            </trkpt>
            <trkpt lon="19.88859806" lat="45.23494139">
                <ele>93</ele>
                <time>2012-09-29T10:45:25.691+02:00</time>
            </trkpt>
            <trkpt lon="19.89178001" lat="45.23248112">
                <ele>103</ele>
                <time>2012-09-29T10:47:03.691+02:00</time>
            </trkpt>
            <trkpt lon="19.89444112" lat="45.22992362">
                <ele>104</ele>
                <time>2012-09-29T10:48:28.691+02:00</time>
            </trkpt>
            <trkpt lon="19.89760667" lat="45.22583362">
                <ele>98</ele>
                <time>2012-09-29T10:50:21.691+02:00</time>
            </trkpt>
            <trkpt lon="19.89881001" lat="45.22434584">
                <ele>115</ele>
                <time>2012-09-29T10:51:07.691+02:00</time>
            </trkpt>
            <trkpt lon="19.90161362" lat="45.22157195">
                <ele>124</ele>
                <time>2012-09-29T10:52:39.691+02:00</time>
            </trkpt>
            <trkpt lon="19.90683306" lat="45.21833362">
                <ele>103</ele>
                <time>2012-09-29T10:55:09.691+02:00</time>
            </trkpt>
            <trkpt lon="19.90832334" lat="45.21752084">
                <ele>98</ele>
                <time>2012-09-29T10:55:51.691+02:00</time>
            </trkpt>
            <trkpt lon="19.91243500" lat="45.21395889">
                <ele>97</ele>
                <time>2012-09-29T10:57:58.691+02:00</time>
            </trkpt>
            <trkpt lon="19.91705389" lat="45.21150251">
                <ele>107</ele>
                <time>2012-09-29T11:00:11.691+02:00</time>
            </trkpt>
            <trkpt lon="19.92144417" lat="45.21015501">
                <ele>82</ele>
                <time>2012-09-29T11:02:10.691+02:00</time>
            </trkpt>
            <trkpt lon="19.92099139" lat="45.21000501">
                <ele>82</ele>
                <time>2012-09-29T11:02:22.691+02:00</time>
            </trkpt>
            <trkpt lon="19.92391917" lat="45.20799056">
                <ele>98</ele>
                <time>2012-09-29T11:03:52.691+02:00</time>
            </trkpt>
            <trkpt lon="19.92770917" lat="45.20571362">
                <ele>94</ele>
                <time>2012-09-29T11:05:41.691+02:00</time>
            </trkpt>
            <trkpt lon="19.92759528" lat="45.20571528">
                <ele>94</ele>
                <time>2012-09-29T11:05:44.691+02:00</time>
            </trkpt>
            <trkpt lon="19.92719862" lat="45.20542223">
                <ele>104</ele>
                <time>2012-09-29T11:05:58.691+02:00</time>
            </trkpt>
            <trkpt lon="19.92708167" lat="45.20505445">
                <ele>104</ele>
                <time>2012-09-29T11:06:05.691+02:00</time>
            </trkpt>
            <trkpt lon="19.92808306" lat="45.20500778">
                <ele>94</ele>
                <time>2012-09-29T11:06:31.691+02:00</time>
            </trkpt>
            <trkpt lon="19.93008056" lat="45.20427723">
                <ele>86</ele>
                <time>2012-09-29T11:07:25.691+02:00</time>
            </trkpt>
            <trkpt lon="19.93143667" lat="45.20346056">
                <ele>91</ele>
                <time>2012-09-29T11:08:05.691+02:00</time>
            </trkpt>
            <trkpt lon="19.93366945" lat="45.20295639">
                <ele>88</ele>
                <time>2012-09-29T11:09:04.691+02:00</time>
            </trkpt>
            <trkpt lon="19.93377084" lat="45.20281334">
                <ele>88</ele>
                <time>2012-09-29T11:09:07.691+02:00</time>
            </trkpt>
            <trkpt lon="19.93361445" lat="45.20231667">
                <ele>87</ele>
                <time>2012-09-29T11:09:17.691+02:00</time>
            </trkpt>
            <trkpt lon="19.93361445" lat="45.20231667">
                <ele>87</ele>
                <time>2012-09-29T11:09:17.691+02:00</time>
            </trkpt>
            <trkpt lon="19.93459667" lat="45.20218334">
                <ele>85</ele>
                <time>2012-09-29T11:09:43.691+02:00</time>
            </trkpt>
            <trkpt lon="19.93581112" lat="45.20210278">
                <ele>84</ele>
                <time>2012-09-29T11:10:15.691+02:00</time>
            </trkpt>
            <trkpt lon="19.93689362" lat="45.20135723">
                <ele>84</ele>
                <time>2012-09-29T11:10:46.691+02:00</time>
            </trkpt>
            <trkpt lon="19.93814612" lat="45.20012695">
                <ele>87</ele>
                <time>2012-09-29T11:11:27.691+02:00</time>
            </trkpt>
            <trkpt lon="19.93899001" lat="45.19981889">
                <ele>90</ele>
                <time>2012-09-29T11:11:50.691+02:00</time>
            </trkpt>
            <trkpt lon="19.94332195" lat="45.19816056">
                <ele>91</ele>
                <time>2012-09-29T11:13:49.691+02:00</time>
            </trkpt>
            <trkpt lon="19.94580000" lat="45.19703667">
                <ele>88</ele>
                <time>2012-09-29T11:14:57.691+02:00</time>
            </trkpt>
            <trkpt lon="19.94559501" lat="45.19713001">
                <ele>88</ele>
                <time>2012-09-29T11:15:02.691+02:00</time>
            </trkpt>
            <trkpt lon="19.94744362" lat="45.19645806">
                <ele>85</ele>
                <time>2012-09-29T11:15:52.691+02:00</time>
            </trkpt>
            <trkpt lon="19.95021195" lat="45.19413778">
                <ele>91</ele>
                <time>2012-09-29T11:17:18.691+02:00</time>
            </trkpt>
            <trkpt lon="19.95288028" lat="45.19135834">
                <ele>80</ele>
                <time>2012-09-29T11:18:45.691+02:00</time>
            </trkpt>
            <trkpt lon="19.95324973" lat="45.18988195">
                <ele>90</ele>
                <time>2012-09-29T11:19:16.691+02:00</time>
            </trkpt>
            <trkpt lon="19.95324362" lat="45.18671778">
                <ele>98</ele>
                <time>2012-09-29T11:20:17.691+02:00</time>
            </trkpt>
            <trkpt lon="19.95316834" lat="45.18039334">
                <ele>138</ele>
                <time>2012-09-29T11:22:24.691+02:00</time>
            </trkpt>
            <trkpt lon="19.95145556" lat="45.17524778">
                <ele>174</ele>
                <time>2012-09-29T11:24:18.691+02:00</time>
            </trkpt>
            <trkpt lon="19.95055612" lat="45.17353973">
                <ele>171</ele>
                <time>2012-09-29T11:24:57.691+02:00</time>
            </trkpt>
            <trkpt lon="19.95120695" lat="45.17232528">
                <ele>182</ele>
                <time>2012-09-29T11:25:28.691+02:00</time>
            </trkpt>
            <trkpt lon="19.95423167" lat="45.17053584">
                <ele>195</ele>
                <time>2012-09-29T11:26:57.691+02:00</time>
            </trkpt>
            <trkpt lon="19.95662584" lat="45.16775667">
                <ele>201</ele>
                <time>2012-09-29T11:28:20.691+02:00</time>
            </trkpt>
            <trkpt lon="19.95636945" lat="45.16409612">
                <ele>220</ele>
                <time>2012-09-29T11:29:33.691+02:00</time>
            </trkpt>
            <trkpt lon="19.95836556" lat="45.16097056">
                <ele>257</ele>
                <time>2012-09-29T11:31:00.691+02:00</time>
            </trkpt>
            <trkpt lon="19.95897806" lat="45.15840389">
                <ele>265</ele>
                <time>2012-09-29T11:31:52.691+02:00</time>
            </trkpt>
            <trkpt lon="19.95816223" lat="45.15439528">
                <ele>265</ele>
                <time>2012-09-29T11:33:09.691+02:00</time>
            </trkpt>
            <trkpt lon="19.95832389" lat="45.15439667">
                <ele>265</ele>
                <time>2012-09-29T11:33:13.691+02:00</time>
            </trkpt>
            <trkpt lon="19.96243167" lat="45.15586834">
                <ele>255</ele>
                <time>2012-09-29T11:35:05.691+02:00</time>
            </trkpt>
            <trkpt lon="19.97165445" lat="45.15884584">
                <ele>241</ele>
                <time>2012-09-29T11:39:15.691+02:00</time>
            </trkpt>
            <trkpt lon="19.97490250" lat="45.16094195">
                <ele>242</ele>
                <time>2012-09-29T11:40:49.691+02:00</time>
            </trkpt>
            <trkpt lon="19.97817584" lat="45.16211834">
                <ele>243</ele>
                <time>2012-09-29T11:42:18.691+02:00</time>
            </trkpt>
            <trkpt lon="19.98157223" lat="45.16093806">
                <ele>244</ele>
                <time>2012-09-29T11:43:50.691+02:00</time>
            </trkpt>
            <trkpt lon="19.98463501" lat="45.16083084">
                <ele>241</ele>
                <time>2012-09-29T11:45:11.691+02:00</time>
            </trkpt>
            <trkpt lon="19.99352667" lat="45.16054695">
                <ele>220</ele>
                <time>2012-09-29T11:49:06.691+02:00</time>
            </trkpt>
            <trkpt lon="19.99653862" lat="45.16003084">
                <ele>218</ele>
                <time>2012-09-29T11:50:26.691+02:00</time>
            </trkpt>
            <trkpt lon="20.00646528" lat="45.15867139">
                <ele>199</ele>
                <time>2012-09-29T11:54:50.691+02:00</time>
            </trkpt>
            <trkpt lon="20.01794362" lat="45.15619417">
                <ele>159</ele>
                <time>2012-09-29T11:59:57.691+02:00</time>
            </trkpt>
            <trkpt lon="20.01794362" lat="45.15619417">
                <ele>159</ele>
                <time>2012-09-29T11:59:57.691+02:00</time>
            </trkpt>
            <trkpt lon="20.02310167" lat="45.15343584">
                <ele>143</ele>
                <time>2012-09-29T12:02:23.691+02:00</time>
            </trkpt>
            <trkpt lon="20.02551306" lat="45.15199917">
                <ele>130</ele>
                <time>2012-09-29T12:03:32.691+02:00</time>
            </trkpt>
            <trkpt lon="20.02844056" lat="45.14917723">
                <ele>153</ele>
                <time>2012-09-29T12:05:11.691+02:00</time>
            </trkpt>
            <trkpt lon="20.02764250" lat="45.14707695">
                <ele>163</ele>
                <time>2012-09-29T12:05:57.691+02:00</time>
            </trkpt>
            <trkpt lon="20.02344473" lat="45.14101612">
                <ele>173</ele>
                <time>2012-09-29T12:08:38.691+02:00</time>
            </trkpt>
            <trkpt lon="20.02999806" lat="45.13853306">
                <ele>164</ele>
                <time>2012-09-29T12:11:37.691+02:00</time>
            </trkpt>
            <trkpt lon="20.04598695" lat="45.13258084">
                <ele>137</ele>
                <time>2012-09-29T12:18:55.691+02:00</time>
            </trkpt>
            <trkpt lon="20.05044028" lat="45.13080556">
                <ele>130</ele>
                <time>2012-09-29T12:20:57.691+02:00</time>
            </trkpt>
            <trkpt lon="20.05204167" lat="45.13051695">
                <ele>128</ele>
                <time>2012-09-29T12:21:39.691+02:00</time>
            </trkpt>
            <trkpt lon="20.05872500" lat="45.13027806">
                <ele>126</ele>
                <time>2012-09-29T12:24:36.691+02:00</time>
            </trkpt>
            <trkpt lon="20.06614473" lat="45.12999917">
                <ele>119</ele>
                <time>2012-09-29T12:27:52.691+02:00</time>
            </trkpt>
            <trkpt lon="20.06564167" lat="45.13003362">
                <ele>123</ele>
                <time>2012-09-29T12:28:06.691+02:00</time>
            </trkpt>
            <trkpt lon="20.07578889" lat="45.12969306">
                <ele>116</ele>
                <time>2012-09-29T12:32:34.691+02:00</time>
            </trkpt>
            <trkpt lon="20.07744612" lat="45.12980112">
                <ele>113</ele>
                <time>2012-09-29T12:33:17.691+02:00</time>
            </trkpt>
            <trkpt lon="20.07917056" lat="45.13058889">
                <ele>110</ele>
                <time>2012-09-29T12:34:05.691+02:00</time>
            </trkpt>
            <trkpt lon="20.09033695" lat="45.13348889">
                <ele>110</ele>
                <time>2012-09-29T12:39:05.691+02:00</time>
            </trkpt>
            <trkpt lon="20.09468001" lat="45.13460945">
                <ele>108</ele>
                <time>2012-09-29T12:41:01.691+02:00</time>
            </trkpt>
            <trkpt lon="20.10245917" lat="45.13673973">
                <ele>115</ele>
                <time>2012-09-29T12:44:32.691+02:00</time>
            </trkpt>
            <trkpt lon="20.11092084" lat="45.13882112">
                <ele>117</ele>
                <time>2012-09-29T12:48:20.691+02:00</time>
            </trkpt>
            <trkpt lon="20.11850945" lat="45.14026334">
                <ele>116</ele>
                <time>2012-09-29T12:51:42.691+02:00</time>
            </trkpt>
            <trkpt lon="20.12135667" lat="45.14067362">
                <ele>115</ele>
                <time>2012-09-29T12:52:57.691+02:00</time>
            </trkpt>
            <trkpt lon="20.13315667" lat="45.14022251">
                <ele>113</ele>
                <time>2012-09-29T12:58:09.691+02:00</time>
            </trkpt>
            <trkpt lon="20.13315667" lat="45.14022251">
                <ele>113</ele>
                <time>2012-09-29T12:58:09.691+02:00</time>
            </trkpt>
            <trkpt lon="20.13969584" lat="45.14009001">
                <ele>106</ele>
                <time>2012-09-29T13:01:02.691+02:00</time>
            </trkpt>
            <trkpt lon="20.14141251" lat="45.14060000">
                <ele>104</ele>
                <time>2012-09-29T13:01:48.691+02:00</time>
            </trkpt>
            <trkpt lon="20.15459778" lat="45.14068223">
                <ele>104</ele>
                <time>2012-09-29T13:07:37.691+02:00</time>
            </trkpt>
            <trkpt lon="20.17125278" lat="45.14069223">
                <ele>106</ele>
                <time>2012-09-29T13:14:58.691+02:00</time>
            </trkpt>
            <trkpt lon="20.18738723" lat="45.14047973">
                <ele>116</ele>
                <time>2012-09-29T13:22:07.691+02:00</time>
            </trkpt>
            <trkpt lon="20.18738723" lat="45.14047973">
                <ele>116</ele>
                <time>2012-09-29T13:22:07.691+02:00</time>
            </trkpt>
            <trkpt lon="20.20385945" lat="45.14076723">
                <ele>124</ele>
                <time>2012-09-29T13:29:25.691+02:00</time>
            </trkpt>
            <trkpt lon="20.21636334" lat="45.13913362">
                <ele>132</ele>
                <time>2012-09-29T13:34:59.691+02:00</time>
            </trkpt>
            <trkpt lon="20.22934223" lat="45.13706889">
                <ele>138</ele>
                <time>2012-09-29T13:40:46.691+02:00</time>
            </trkpt>
            <trkpt lon="20.25033639" lat="45.13436834">
                <ele>145</ele>
                <time>2012-09-29T13:50:06.691+02:00</time>
            </trkpt>
            <trkpt lon="20.25033639" lat="45.13436834">
                <ele>145</ele>
                <time>2012-09-29T13:50:06.691+02:00</time>
            </trkpt>
            <trkpt lon="20.25160695" lat="45.13400751">
                <ele>144</ele>
                <time>2012-09-29T13:50:40.691+02:00</time>
            </trkpt>
            <trkpt lon="20.25334639" lat="45.13284389">
                <ele>143</ele>
                <time>2012-09-29T13:51:30.691+02:00</time>
            </trkpt>
            <trkpt lon="20.25838028" lat="45.12801612">
                <ele>137</ele>
                <time>2012-09-29T13:54:11.691+02:00</time>
            </trkpt>
            <trkpt lon="20.27140945" lat="45.11626750">
                <ele>131</ele>
                <time>2012-09-29T14:01:00.691+02:00</time>
            </trkpt>
            <trkpt lon="20.28058001" lat="45.10809139">
                <ele>124</ele>
                <time>2012-09-29T14:05:47.691+02:00</time>
            </trkpt>
            <trkpt lon="20.28058001" lat="45.10809139">
                <ele>124</ele>
                <time>2012-09-29T14:05:47.691+02:00</time>
            </trkpt>
            <trkpt lon="20.28480334" lat="45.10455445">
                <ele>120</ele>
                <time>2012-09-29T14:07:57.691+02:00</time>
            </trkpt>
            <trkpt lon="20.29012751" lat="45.09959334">
                <ele>114</ele>
                <time>2012-09-29T14:10:45.691+02:00</time>
            </trkpt>
            <trkpt lon="20.30841167" lat="45.08294334">
                <ele>105</ele>
                <time>2012-09-29T14:20:21.691+02:00</time>
            </trkpt>
            <trkpt lon="20.31494445" lat="45.07805056">
                <ele>100</ele>
                <time>2012-09-29T14:23:36.691+02:00</time>
            </trkpt>
            <trkpt lon="20.31874084" lat="45.07531584">
                <ele>101</ele>
                <time>2012-09-29T14:25:29.691+02:00</time>
            </trkpt>
            <trkpt lon="20.32279139" lat="45.07267306">
                <ele>100</ele>
                <time>2012-09-29T14:27:27.691+02:00</time>
            </trkpt>
            <trkpt lon="20.32549167" lat="45.07088084">
                <ele>105</ele>
                <time>2012-09-29T14:28:47.691+02:00</time>
            </trkpt>
            <trkpt lon="20.32549167" lat="45.07088084">
                <ele>105</ele>
                <time>2012-09-29T14:28:47.691+02:00</time>
            </trkpt>
            <trkpt lon="20.32947750" lat="45.06823751">
                <ele>105</ele>
                <time>2012-09-29T14:30:43.691+02:00</time>
            </trkpt>
            <trkpt lon="20.32976473" lat="45.06749973">
                <ele>103</ele>
                <time>2012-09-29T14:30:58.691+02:00</time>
            </trkpt>
            <trkpt lon="20.33046223" lat="45.06130084">
                <ele>103</ele>
                <time>2012-09-29T14:32:55.691+02:00</time>
            </trkpt>
            <trkpt lon="20.33127917" lat="45.05653473">
                <ele>102</ele>
                <time>2012-09-29T14:34:26.691+02:00</time>
            </trkpt>
            <trkpt lon="20.33401362" lat="45.03319389">
                <ele>97</ele>
                <time>2012-09-29T14:41:48.691+02:00</time>
            </trkpt>
            <trkpt lon="20.33541778" lat="45.02331306">
                <ele>95</ele>
                <time>2012-09-29T14:44:56.691+02:00</time>
            </trkpt>
            <trkpt lon="20.33563556" lat="45.02270028">
                <ele>95</ele>
                <time>2012-09-29T14:45:08.691+02:00</time>
            </trkpt>
            <trkpt lon="20.33624695" lat="45.02131695">
                <ele>97</ele>
                <time>2012-09-29T14:45:39.691+02:00</time>
            </trkpt>
            <trkpt lon="20.33290362" lat="45.01898723">
                <ele>96</ele>
                <time>2012-09-29T14:47:17.691+02:00</time>
            </trkpt>
            <trkpt lon="20.33290362" lat="45.01898723">
                <ele>96</ele>
                <time>2012-09-29T14:47:17.691+02:00</time>
            </trkpt>
            <trkpt lon="20.32841056" lat="45.01624862">
                <ele>95</ele>
                <time>2012-09-29T14:49:26.691+02:00</time>
            </trkpt>
            <trkpt lon="20.32479112" lat="45.01388251">
                <ele>92</ele>
                <time>2012-09-29T14:51:11.691+02:00</time>
            </trkpt>
            <trkpt lon="20.32297417" lat="45.01251000">
                <ele>94</ele>
                <time>2012-09-29T14:52:06.691+02:00</time>
            </trkpt>
            <trkpt lon="20.31972445" lat="45.01047250">
                <ele>91</ele>
                <time>2012-09-29T14:53:40.691+02:00</time>
            </trkpt>
            <trkpt lon="20.31635806" lat="45.00924806">
                <ele>93</ele>
                <time>2012-09-29T14:55:12.691+02:00</time>
            </trkpt>
            <trkpt lon="20.31113834" lat="45.00574917">
                <ele>88</ele>
                <time>2012-09-29T14:57:45.691+02:00</time>
            </trkpt>
            <trkpt lon="20.30372973" lat="45.00190723">
                <ele>82</ele>
                <time>2012-09-29T15:01:14.691+02:00</time>
            </trkpt>
            <trkpt lon="20.30240584" lat="45.00076917">
                <ele>83</ele>
                <time>2012-09-29T15:01:55.691+02:00</time>
            </trkpt>
            <trkpt lon="20.29509695" lat="44.99547195">
                <ele>78</ele>
                <time>2012-09-29T15:05:32.691+02:00</time>
            </trkpt>
            <trkpt lon="20.29234334" lat="44.99353862">
                <ele>81</ele>
                <time>2012-09-29T15:06:54.691+02:00</time>
            </trkpt>
            <trkpt lon="20.28907723" lat="44.99082000">
                <ele>79</ele>
                <time>2012-09-29T15:08:34.691+02:00</time>
            </trkpt>
            <trkpt lon="20.28713389" lat="44.98898195">
                <ele>79</ele>
                <time>2012-09-29T15:09:35.691+02:00</time>
            </trkpt>
            <trkpt lon="20.28556362" lat="44.98721000">
                <ele>78</ele>
                <time>2012-09-29T15:10:28.691+02:00</time>
            </trkpt>
            <trkpt lon="20.28575139" lat="44.98713501">
                <ele>78</ele>
                <time>2012-09-29T15:10:33.691+02:00</time>
            </trkpt>
            <trkpt lon="20.28573139" lat="44.98711695">
                <ele>78</ele>
                <time>2012-09-29T15:10:33.691+02:00</time>
            </trkpt>
            <trkpt lon="20.28711639" lat="44.98656028">
                <ele>81</ele>
                <time>2012-09-29T15:11:11.691+02:00</time>
            </trkpt>
            <trkpt lon="20.28546195" lat="44.98448223">
                <ele>77</ele>
                <time>2012-09-29T15:12:09.691+02:00</time>
            </trkpt>
            <trkpt lon="20.28371195" lat="44.98256306">
                <ele>74</ele>
                <time>2012-09-29T15:13:07.691+02:00</time>
            </trkpt>
            <trkpt lon="20.28281556" lat="44.98233778">
                <ele>74</ele>
                <time>2012-09-29T15:13:31.691+02:00</time>
            </trkpt>
            <trkpt lon="20.28168028" lat="44.98205306">
                <ele>80</ele>
                <time>2012-09-29T15:14:02.691+02:00</time>
            </trkpt>
            <trkpt lon="20.28092973" lat="44.98096334">
                <ele>85</ele>
                <time>2012-09-29T15:14:31.691+02:00</time>
            </trkpt>
            <trkpt lon="20.28113389" lat="44.97481695">
                <ele>88</ele>
                <time>2012-09-29T15:16:27.691+02:00</time>
            </trkpt>
            <trkpt lon="20.28163112" lat="44.96745195">
                <ele>91</ele>
                <time>2012-09-29T15:18:46.691+02:00</time>
            </trkpt>
            <trkpt lon="20.28113084" lat="44.95976445">
                <ele>90</ele>
                <time>2012-09-29T15:21:10.691+02:00</time>
            </trkpt>
            <trkpt lon="20.28098584" lat="44.95690806">
                <ele>91</ele>
                <time>2012-09-29T15:22:03.691+02:00</time>
            </trkpt>
            <trkpt lon="20.28098584" lat="44.95690806">
                <ele>91</ele>
                <time>2012-09-29T15:22:03.691+02:00</time>
            </trkpt>
            <trkpt lon="20.28092751" lat="44.95564973">
                <ele>89</ele>
                <time>2012-09-29T15:22:26.691+02:00</time>
            </trkpt>
            <trkpt lon="20.28277251" lat="44.95064389">
                <ele>89</ele>
                <time>2012-09-29T15:24:11.691+02:00</time>
            </trkpt>
            <trkpt lon="20.28267667" lat="44.94811195">
                <ele>91</ele>
                <time>2012-09-29T15:24:59.691+02:00</time>
            </trkpt>
            <trkpt lon="20.28210806" lat="44.94524917">
                <ele>92</ele>
                <time>2012-09-29T15:25:55.691+02:00</time>
            </trkpt>
            <trkpt lon="20.28252112" lat="44.94439445">
                <ele>91</ele>
                <time>2012-09-29T15:26:14.691+02:00</time>
            </trkpt>
            <trkpt lon="20.28109528" lat="44.94255612">
                <ele>91</ele>
                <time>2012-09-29T15:27:05.691+02:00</time>
            </trkpt>
            <trkpt lon="20.28109528" lat="44.94255612">
                <ele>91</ele>
                <time>2012-09-29T15:27:05.691+02:00</time>
            </trkpt>
            <trkpt lon="20.28134639" lat="44.94178612">
                <ele>90</ele>
                <time>2012-09-29T15:27:29.691+02:00</time>
            </trkpt>
            <trkpt lon="20.28097056" lat="44.93888167">
                <ele>88</ele>
                <time>2012-09-29T15:28:55.691+02:00</time>
            </trkpt>
            <trkpt lon="20.28059167" lat="44.93636473">
                <ele>88</ele>
                <time>2012-09-29T15:30:10.691+02:00</time>
            </trkpt>
            <trkpt lon="20.27969834" lat="44.93147695">
                <ele>86</ele>
                <time>2012-09-29T15:32:37.691+02:00</time>
            </trkpt>
            <trkpt lon="20.27967139" lat="44.92853862">
                <ele>87</ele>
                <time>2012-09-29T15:34:03.691+02:00</time>
            </trkpt>
            <trkpt lon="20.28007806" lat="44.92655223">
                <ele>84</ele>
                <time>2012-09-29T15:35:03.691+02:00</time>
            </trkpt>
            <trkpt lon="20.28086584" lat="44.92461334">
                <ele>83</ele>
                <time>2012-09-29T15:36:08.691+02:00</time>
            </trkpt>
            <trkpt lon="20.28123001" lat="44.92090917">
                <ele>82</ele>
                <time>2012-09-29T15:37:57.691+02:00</time>
            </trkpt>
            <trkpt lon="20.27916862" lat="44.91786750">
                <ele>83</ele>
                <time>2012-09-29T15:40:00.691+02:00</time>
            </trkpt>
            <trkpt lon="20.27916862" lat="44.91786750">
                <ele>83</ele>
                <time>2012-09-29T15:40:00.691+02:00</time>
            </trkpt>
            <trkpt lon="20.27918139" lat="44.91682806">
                <ele>83</ele>
                <time>2012-09-29T15:40:19.691+02:00</time>
            </trkpt>
            <trkpt lon="20.28140751" lat="44.91164584">
                <ele>80</ele>
                <time>2012-09-29T15:42:12.691+02:00</time>
            </trkpt>
            <trkpt lon="20.27436556" lat="44.90606667">
                <ele>77</ele>
                <time>2012-09-29T15:45:45.691+02:00</time>
            </trkpt>
            <trkpt lon="20.27467362" lat="44.90599584">
                <ele>77</ele>
                <time>2012-09-29T15:45:53.691+02:00</time>
            </trkpt>
            <trkpt lon="20.28073639" lat="44.90254473">
                <ele>80</ele>
                <time>2012-09-29T15:48:46.691+02:00</time>
            </trkpt>
            <trkpt lon="20.28609306" lat="44.89982112">
                <ele>77</ele>
                <time>2012-09-29T15:51:16.691+02:00</time>
            </trkpt>
            <trkpt lon="20.29074167" lat="44.89764362">
                <ele>78</ele>
                <time>2012-09-29T15:53:26.691+02:00</time>
            </trkpt>
            <trkpt lon="20.29617362" lat="44.89505445">
                <ele>78</ele>
                <time>2012-09-29T15:55:57.691+02:00</time>
            </trkpt>
            <trkpt lon="20.29795834" lat="44.89414889">
                <ele>78</ele>
                <time>2012-09-29T15:56:47.691+02:00</time>
            </trkpt>
            <trkpt lon="20.29783723" lat="44.89423334">
                <ele>79</ele>
                <time>2012-09-29T15:56:50.691+02:00</time>
            </trkpt>
            <trkpt lon="20.29940639" lat="44.89364528">
                <ele>78</ele>
                <time>2012-09-29T15:57:33.691+02:00</time>
            </trkpt>
            <trkpt lon="20.29940639" lat="44.89364528">
                <ele>78</ele>
                <time>2012-09-29T15:57:33.691+02:00</time>
            </trkpt>
            <trkpt lon="20.30417362" lat="44.89130751">
                <ele>79</ele>
                <time>2012-09-29T15:59:46.691+02:00</time>
            </trkpt>
            <trkpt lon="20.31504417" lat="44.88626528">
                <ele>77</ele>
                <time>2012-09-29T16:04:49.691+02:00</time>
            </trkpt>
            <trkpt lon="20.32352778" lat="44.88296556">
                <ele>83</ele>
                <time>2012-09-29T16:08:43.691+02:00</time>
            </trkpt>
            <trkpt lon="20.33484223" lat="44.87794445">
                <ele>82</ele>
                <time>2012-09-29T16:13:57.691+02:00</time>
            </trkpt>
            <trkpt lon="20.34141445" lat="44.87519250">
                <ele>83</ele>
                <time>2012-09-29T16:16:58.691+02:00</time>
            </trkpt>
            <trkpt lon="20.34141445" lat="44.87519250">
                <ele>83</ele>
                <time>2012-09-29T16:16:58.691+02:00</time>
            </trkpt>
            <trkpt lon="20.34369167" lat="44.87431056">
                <ele>88</ele>
                <time>2012-09-29T16:18:01.691+02:00</time>
            </trkpt>
            <trkpt lon="20.34589917" lat="44.87345139">
                <ele>86</ele>
                <time>2012-09-29T16:19:01.691+02:00</time>
            </trkpt>
            <trkpt lon="20.35452584" lat="44.86947723">
                <ele>88</ele>
                <time>2012-09-29T16:23:01.691+02:00</time>
            </trkpt>
            <trkpt lon="20.36336612" lat="44.86553806">
                <ele>89</ele>
                <time>2012-09-29T16:27:06.691+02:00</time>
            </trkpt>
            <trkpt lon="20.37011223" lat="44.86251251">
                <ele>91</ele>
                <time>2012-09-29T16:30:14.691+02:00</time>
            </trkpt>
            <trkpt lon="20.37713362" lat="44.85974834">
                <ele>88</ele>
                <time>2012-09-29T16:33:27.691+02:00</time>
            </trkpt>
            <trkpt lon="20.38741639" lat="44.85501251">
                <ele>97</ele>
                <time>2012-09-29T16:38:15.691+02:00</time>
            </trkpt>
            <trkpt lon="20.38741639" lat="44.85501251">
                <ele>97</ele>
                <time>2012-09-29T16:38:15.691+02:00</time>
            </trkpt>
            <trkpt lon="20.38900417" lat="44.85426750">
                <ele>99</ele>
                <time>2012-09-29T16:38:59.691+02:00</time>
            </trkpt>
            <trkpt lon="20.39040084" lat="44.85525445">
                <ele>99</ele>
                <time>2012-09-29T16:39:40.691+02:00</time>
            </trkpt>
            <trkpt lon="20.39664834" lat="44.85338917">
                <ele>94</ele>
                <time>2012-09-29T16:42:29.691+02:00</time>
            </trkpt>
            <trkpt lon="20.40295389" lat="44.85123223">
                <ele>99</ele>
                <time>2012-09-29T16:45:22.691+02:00</time>
            </trkpt>
            <trkpt lon="20.40633362" lat="44.85086334">
                <ele>101</ele>
                <time>2012-09-29T16:46:52.691+02:00</time>
            </trkpt>
            <trkpt lon="20.40792528" lat="44.84960778">
                <ele>104</ele>
                <time>2012-09-29T16:47:41.691+02:00</time>
            </trkpt>
            <trkpt lon="20.40956695" lat="44.84963667">
                <ele>108</ele>
                <time>2012-09-29T16:48:25.691+02:00</time>
            </trkpt>
            <trkpt lon="20.41128862" lat="44.84858445">
                <ele>92</ele>
                <time>2012-09-29T16:49:14.691+02:00</time>
            </trkpt>
            <trkpt lon="20.41280889" lat="44.84694056">
                <ele>77</ele>
                <time>2012-09-29T16:50:04.691+02:00</time>
            </trkpt>
            <trkpt lon="20.41290612" lat="44.84682862">
                <ele>77</ele>
                <time>2012-09-29T16:50:07.691+02:00</time>
            </trkpt>
            <trkpt lon="20.41458112" lat="44.84693028">
                <ele>77</ele>
                <time>2012-09-29T16:50:51.691+02:00</time>
            </trkpt>
            <trkpt lon="20.41685139" lat="44.84392139">
                <ele>76</ele>
                <time>2012-09-29T16:52:13.691+02:00</time>
            </trkpt>
            <trkpt lon="20.41859250" lat="44.83881167">
                <ele>77</ele>
                <time>2012-09-29T16:53:59.691+02:00</time>
            </trkpt>
            <trkpt lon="20.42061445" lat="44.83141584">
                <ele>75</ele>
                <time>2012-09-29T16:56:27.691+02:00</time>
            </trkpt>
            <trkpt lon="20.42061445" lat="44.83141584">
                <ele>75</ele>
                <time>2012-09-29T16:56:27.691+02:00</time>
            </trkpt>
            <trkpt lon="20.42137445" lat="44.82895112">
                <ele>81</ele>
                <time>2012-09-29T16:57:18.691+02:00</time>
            </trkpt>
            <trkpt lon="20.42240556" lat="44.82644139">
                <ele>76</ele>
                <time>2012-09-29T16:58:12.691+02:00</time>
            </trkpt>
            <trkpt lon="20.42426306" lat="44.82454751">
                <ele>77</ele>
                <time>2012-09-29T16:59:12.691+02:00</time>
            </trkpt>
            <trkpt lon="20.42753945" lat="44.82290000">
                <ele>77</ele>
                <time>2012-09-29T17:00:44.691+02:00</time>
            </trkpt>
            <trkpt lon="20.42999306" lat="44.82186139">
                <ele>76</ele>
                <time>2012-09-29T17:01:51.691+02:00</time>
            </trkpt>
            <trkpt lon="20.42973556" lat="44.82200584">
                <ele>76</ele>
                <time>2012-09-29T17:01:58.691+02:00</time>
            </trkpt>
            <trkpt lon="20.43558945" lat="44.82124056">
                <ele>76</ele>
                <time>2012-09-29T17:04:33.691+02:00</time>
            </trkpt>
            <trkpt lon="20.43940612" lat="44.82178362">
                <ele>76</ele>
                <time>2012-09-29T17:06:14.691+02:00</time>
            </trkpt>
            <trkpt lon="20.44023278" lat="44.82264278">
                <ele>77</ele>
                <time>2012-09-29T17:06:41.691+02:00</time>
            </trkpt>
            <trkpt lon="20.44145084" lat="44.82292334">
                <ele>75</ele>
                <time>2012-09-29T17:07:13.691+02:00</time>
            </trkpt>
            <trkpt lon="20.44145084" lat="44.82292334">
                <ele>75</ele>
                <time>2012-09-29T17:07:13.691+02:00</time>
            </trkpt>
            <trkpt lon="20.44499612" lat="44.81766389">
                <ele>75</ele>
                <time>2012-09-29T17:09:29.691+02:00</time>
            </trkpt>
            <trkpt lon="20.44613778" lat="44.81516751">
                <ele>77</ele>
                <time>2012-09-29T17:10:25.691+02:00</time>
            </trkpt>
            <trkpt lon="20.44586445" lat="44.81527500">
                <ele>77</ele>
                <time>2012-09-29T17:10:32.691+02:00</time>
            </trkpt>
            <trkpt lon="20.43925917" lat="44.81484584">
                <ele>73</ele>
                <time>2012-09-29T17:13:27.691+02:00</time>
            </trkpt>
            <trkpt lon="20.43948806" lat="44.81426445">
                <ele>73</ele>
                <time>2012-09-29T17:13:39.691+02:00</time>
            </trkpt>
            <trkpt lon="20.45010362" lat="44.81494167">
                <ele>75</ele>
                <time>2012-09-29T17:18:21.691+02:00</time>
            </trkpt>
            <trkpt lon="20.44949612" lat="44.81548445">
                <ele>72</ele>
                <time>2012-09-29T17:18:40.691+02:00</time>
            </trkpt>
            <trkpt lon="20.44908056" lat="44.81707917">
                <ele>67</ele>
                <time>2012-09-29T17:19:11.691+02:00</time>
            </trkpt>
            <trkpt lon="20.44862334" lat="44.81881612">
                <ele>70</ele>
                <time>2012-09-29T17:19:46.691+02:00</time>
            </trkpt>
            <trkpt lon="20.44720084" lat="44.82094778">
                <ele>67</ele>
                <time>2012-09-29T17:20:41.691+02:00</time>
            </trkpt>
            <trkpt lon="20.44618806" lat="44.82214028">
                <ele>67</ele>
                <time>2012-09-29T17:21:15.691+02:00</time>
            </trkpt>
            <trkpt lon="20.44544973" lat="44.82393306">
                <ele>67</ele>
                <time>2012-09-29T17:21:53.691+02:00</time>
            </trkpt>
            <trkpt lon="20.44527612" lat="44.82530084">
                <ele>67</ele>
                <time>2012-09-29T17:22:19.691+02:00</time>
            </trkpt>
            <trkpt lon="20.44586695" lat="44.82681195">
                <ele>71</ele>
                <time>2012-09-29T17:22:52.691+02:00</time>
            </trkpt>
            <trkpt lon="20.44665028" lat="44.82767695">
                <ele>70</ele>
                <time>2012-09-29T17:23:18.691+02:00</time>
            </trkpt>
            <trkpt lon="20.44730556" lat="44.82832695">
                <ele>70</ele>
                <time>2012-09-29T17:23:39.691+02:00</time>
            </trkpt>
            <trkpt lon="20.44957973" lat="44.82930806">
                <ele>73</ele>
                <time>2012-09-29T17:24:42.691+02:00</time>
            </trkpt>
            <trkpt lon="20.45210973" lat="44.83046195">
                <ele>74</ele>
                <time>2012-09-29T17:25:52.691+02:00</time>
            </trkpt>
            <trkpt lon="20.45431167" lat="44.83077917">
                <ele>78</ele>
                <time>2012-09-29T17:26:51.691+02:00</time>
            </trkpt>
            <trkpt lon="20.45640084" lat="44.83097112">
                <ele>67</ele>
                <time>2012-09-29T17:27:46.691+02:00</time>
            </trkpt>
            <trkpt lon="20.45640223" lat="44.83082862">
                <ele>76</ele>
                <time>2012-09-29T17:27:50.691+02:00</time>
            </trkpt>
            <trkpt lon="20.45636223" lat="44.83080001">
                <ele>76</ele>
                <time>2012-09-29T17:27:51.691+02:00</time>
            </trkpt>
            <trkpt lon="20.45620917" lat="44.83002945">
                <ele>76</ele>
                <time>2012-09-29T17:28:06.691+02:00</time>
            </trkpt>
            <trkpt lon="20.45609556" lat="44.82937306">
                <ele>74</ele>
                <time>2012-09-29T17:28:18.691+02:00</time>
            </trkpt>
            <trkpt lon="20.45609556" lat="44.82937306">
                <ele>74</ele>
                <time>2012-09-29T17:28:18.691+02:00</time>
            </trkpt>
            <trkpt lon="20.45602112" lat="44.82874528">
                <ele>74</ele>
                <time>2012-09-29T17:28:29.691+02:00</time>
            </trkpt>
            <trkpt lon="20.45602112" lat="44.82874528">
                <ele>74</ele>
                <time>2012-09-29T17:28:29.691+02:00</time>
            </trkpt>
            <trkpt lon="20.45578695" lat="44.82808862">
                <ele>78</ele>
                <time>2012-09-29T17:28:43.691+02:00</time>
            </trkpt>
            <trkpt lon="20.45576667" lat="44.82597862">
                <ele>85</ele>
                <time>2012-09-29T17:29:24.691+02:00</time>
            </trkpt>
            <trkpt lon="20.45576667" lat="44.82597862">
                <ele>85</ele>
                <time>2012-09-29T17:29:24.691+02:00</time>
            </trkpt>
            <trkpt lon="20.45565528" lat="44.82503723">
                <ele>87</ele>
                <time>2012-09-29T17:29:42.691+02:00</time>
            </trkpt>
            <trkpt lon="20.45554862" lat="44.82358251">
                <ele>101</ele>
                <time>2012-09-29T17:30:12.691+02:00</time>
            </trkpt>
            <trkpt lon="20.45554862" lat="44.82358251">
                <ele>101</ele>
                <time>2012-09-29T17:30:12.691+02:00</time>
            </trkpt>
            <trkpt lon="20.45519945" lat="44.82238334">
                <ele>112</ele>
                <time>2012-09-29T17:30:38.691+02:00</time>
            </trkpt>
            <trkpt lon="20.45476695" lat="44.82152584">
                <ele>114</ele>
                <time>2012-09-29T17:30:58.691+02:00</time>
            </trkpt>
            <trkpt lon="20.45437167" lat="44.82092528">
                <ele>114</ele>
                <time>2012-09-29T17:31:13.691+02:00</time>
            </trkpt>
            <trkpt lon="20.45430528" lat="44.82098056">
                <ele>114</ele>
                <time>2012-09-29T17:31:15.691+02:00</time>
            </trkpt>
            <trkpt lon="20.45322584" lat="44.81998889">
                <ele>113</ele>
                <time>2012-09-29T17:31:49.691+02:00</time>
            </trkpt>
            <trkpt lon="20.45351723" lat="44.81985251">
                <ele>119</ele>
                <time>2012-09-29T17:31:58.691+02:00</time>
            </trkpt>
            <trkpt lon="20.45938834" lat="44.81582056">
                <ele>123</ele>
                <time>2012-09-29T17:34:52.691+02:00</time>
            </trkpt>
        </trkseg>
    </trk>
</gpx>
